<?xml version="1.0" encoding="UTF-8" standalone="no" ?>
<gpx xmlns="http://www.topografix.com/GPX/1/1" xmlns:xsi="http://www.w3.org/2001/XMLSchema-instance" xsi:schemaLocation="http://www.topografix.com/GPX/1/1 http://www.topografix.com/GPX/1/1/gpx.xsd" version="1.1" creator="VisuGPX - https://www.visugpx.com">
  <metadata>
    <name>Pic de la Calabasse</name>
    <desc><![CDATA[Montée en suivant le ruisseau de Besset; neige abondante et poudreuse  dès la cabane de Barguerasse mais avec une sous couche bien ferme qui nous permet de nous passer de raquette. Crampons nécessaires dans la dernière portion sous le pic de la Calabasse.]]></desc>
  </metadata>
  <trk>
    <name><![CDATA[Pic de la Calabasse_1]]></name>
    <trkseg>
      <trkpt lat="42.892" lon="0.88715">
        <ele>1038.8</ele>
        <time>2022-01-23T08:59:39Z</time>
      </trkpt>
      <trkpt lat="42.892" lon="0.88724">
        <ele>1039.4</ele>
        <time>2022-01-23T08:59:46Z</time>
      </trkpt>
      <trkpt lat="42.89191" lon="0.88726">
        <ele>1039.8</ele>
        <time>2022-01-23T08:59:56Z</time>
      </trkpt>
      <trkpt lat="42.89184" lon="0.88718">
        <ele>1041.8</ele>
        <time>2022-01-23T09:00:04Z</time>
      </trkpt>
      <trkpt lat="42.89178" lon="0.88707">
        <ele>1043</ele>
        <time>2022-01-23T09:00:16Z</time>
      </trkpt>
      <trkpt lat="42.89172" lon="0.88696">
        <ele>1043.7</ele>
        <time>2022-01-23T09:00:25Z</time>
      </trkpt>
      <trkpt lat="42.89169" lon="0.88684">
        <ele>1042.9</ele>
        <time>2022-01-23T09:00:33Z</time>
      </trkpt>
      <trkpt lat="42.89166" lon="0.88672">
        <ele>1042.2</ele>
        <time>2022-01-23T09:00:41Z</time>
      </trkpt>
      <trkpt lat="42.89164" lon="0.88658">
        <ele>1041.9</ele>
        <time>2022-01-23T09:00:54Z</time>
      </trkpt>
      <trkpt lat="42.89163" lon="0.88645">
        <ele>1041.5</ele>
        <time>2022-01-23T09:01:06Z</time>
      </trkpt>
      <trkpt lat="42.89162" lon="0.88631">
        <ele>1039</ele>
        <time>2022-01-23T09:01:17Z</time>
      </trkpt>
      <trkpt lat="42.89161" lon="0.88619">
        <ele>1039</ele>
        <time>2022-01-23T09:01:25Z</time>
      </trkpt>
      <trkpt lat="42.89156" lon="0.88608">
        <ele>1039</ele>
        <time>2022-01-23T09:01:36Z</time>
      </trkpt>
      <trkpt lat="42.89149" lon="0.88601">
        <ele>1039</ele>
        <time>2022-01-23T09:01:45Z</time>
      </trkpt>
      <trkpt lat="42.89143" lon="0.8859">
        <ele>1039</ele>
        <time>2022-01-23T09:01:52Z</time>
      </trkpt>
      <trkpt lat="42.89135" lon="0.88582">
        <ele>1039</ele>
        <time>2022-01-23T09:02:06Z</time>
      </trkpt>
      <trkpt lat="42.89131" lon="0.88571">
        <ele>1039</ele>
        <time>2022-01-23T09:02:17Z</time>
      </trkpt>
      <trkpt lat="42.89124" lon="0.88557">
        <ele>1040</ele>
        <time>2022-01-23T09:02:27Z</time>
      </trkpt>
      <trkpt lat="42.89117" lon="0.88549">
        <ele>1040</ele>
        <time>2022-01-23T09:02:34Z</time>
      </trkpt>
      <trkpt lat="42.89113" lon="0.88537">
        <ele>1040</ele>
        <time>2022-01-23T09:02:43Z</time>
      </trkpt>
      <trkpt lat="42.89108" lon="0.88527">
        <ele>1040</ele>
        <time>2022-01-23T09:02:51Z</time>
      </trkpt>
      <trkpt lat="42.89103" lon="0.88516">
        <ele>1040</ele>
        <time>2022-01-23T09:02:59Z</time>
      </trkpt>
      <trkpt lat="42.891" lon="0.88503">
        <ele>1040</ele>
        <time>2022-01-23T09:03:08Z</time>
      </trkpt>
      <trkpt lat="42.89095" lon="0.8849">
        <ele>1040</ele>
        <time>2022-01-23T09:03:16Z</time>
      </trkpt>
      <trkpt lat="42.89091" lon="0.88479">
        <ele>1040</ele>
        <time>2022-01-23T09:03:24Z</time>
      </trkpt>
      <trkpt lat="42.89085" lon="0.88469">
        <ele>1040</ele>
        <time>2022-01-23T09:03:33Z</time>
      </trkpt>
      <trkpt lat="42.89081" lon="0.88457">
        <ele>1036</ele>
        <time>2022-01-23T09:03:47Z</time>
      </trkpt>
      <trkpt lat="42.89079" lon="0.88445">
        <ele>1036</ele>
        <time>2022-01-23T09:03:58Z</time>
      </trkpt>
      <trkpt lat="42.89076" lon="0.88433">
        <ele>1036</ele>
        <time>2022-01-23T09:04:06Z</time>
      </trkpt>
      <trkpt lat="42.89069" lon="0.88426">
        <ele>1036</ele>
        <time>2022-01-23T09:04:18Z</time>
      </trkpt>
      <trkpt lat="42.89062" lon="0.88417">
        <ele>1036</ele>
        <time>2022-01-23T09:04:28Z</time>
      </trkpt>
      <trkpt lat="42.89054" lon="0.88411">
        <ele>1036</ele>
        <time>2022-01-23T09:04:38Z</time>
      </trkpt>
      <trkpt lat="42.89048" lon="0.88402">
        <ele>1036</ele>
        <time>2022-01-23T09:04:49Z</time>
      </trkpt>
      <trkpt lat="42.89041" lon="0.88393">
        <ele>1036</ele>
        <time>2022-01-23T09:05:00Z</time>
      </trkpt>
      <trkpt lat="42.89033" lon="0.88385">
        <ele>1036</ele>
        <time>2022-01-23T09:05:12Z</time>
      </trkpt>
      <trkpt lat="42.89028" lon="0.88375">
        <ele>1036</ele>
        <time>2022-01-23T09:05:26Z</time>
      </trkpt>
      <trkpt lat="42.8902" lon="0.88366">
        <ele>1036</ele>
        <time>2022-01-23T09:05:34Z</time>
      </trkpt>
      <trkpt lat="42.89013" lon="0.88358">
        <ele>1036</ele>
        <time>2022-01-23T09:05:45Z</time>
      </trkpt>
      <trkpt lat="42.89005" lon="0.88352">
        <ele>1036</ele>
        <time>2022-01-23T09:05:55Z</time>
      </trkpt>
      <trkpt lat="42.89001" lon="0.8834">
        <ele>1036</ele>
        <time>2022-01-23T09:06:05Z</time>
      </trkpt>
      <trkpt lat="42.88993" lon="0.88333">
        <ele>1036</ele>
        <time>2022-01-23T09:06:20Z</time>
      </trkpt>
      <trkpt lat="42.88984" lon="0.88327">
        <ele>1036</ele>
        <time>2022-01-23T09:06:31Z</time>
      </trkpt>
      <trkpt lat="42.88982" lon="0.88314">
        <ele>1036</ele>
        <time>2022-01-23T09:06:42Z</time>
      </trkpt>
      <trkpt lat="42.88975" lon="0.88304">
        <ele>1036</ele>
        <time>2022-01-23T09:06:58Z</time>
      </trkpt>
      <trkpt lat="42.88967" lon="0.88297">
        <ele>1036</ele>
        <time>2022-01-23T09:07:08Z</time>
      </trkpt>
      <trkpt lat="42.88959" lon="0.88289">
        <ele>1036</ele>
        <time>2022-01-23T09:07:19Z</time>
      </trkpt>
      <trkpt lat="42.88952" lon="0.88282">
        <ele>1036</ele>
        <time>2022-01-23T09:07:32Z</time>
      </trkpt>
      <trkpt lat="42.88954" lon="0.88268">
        <ele>1036</ele>
        <time>2022-01-23T09:07:46Z</time>
      </trkpt>
      <trkpt lat="42.8896" lon="0.88258">
        <ele>1036</ele>
        <time>2022-01-23T09:08:10Z</time>
      </trkpt>
      <trkpt lat="42.88951" lon="0.88255">
        <ele>1036</ele>
        <time>2022-01-23T09:09:14Z</time>
      </trkpt>
      <trkpt lat="42.8896" lon="0.88259">
        <ele>1036</ele>
        <time>2022-01-23T09:09:20Z</time>
      </trkpt>
      <trkpt lat="42.88952" lon="0.88266">
        <ele>1036</ele>
        <time>2022-01-23T09:09:54Z</time>
      </trkpt>
      <trkpt lat="42.8895" lon="0.88252">
        <ele>1036</ele>
        <time>2022-01-23T09:10:20Z</time>
      </trkpt>
      <trkpt lat="42.88949" lon="0.8824">
        <ele>1036</ele>
        <time>2022-01-23T09:10:35Z</time>
      </trkpt>
      <trkpt lat="42.88945" lon="0.88229">
        <ele>1036</ele>
        <time>2022-01-23T09:10:46Z</time>
      </trkpt>
      <trkpt lat="42.88941" lon="0.88217">
        <ele>1067</ele>
        <time>2022-01-23T09:10:57Z</time>
      </trkpt>
      <trkpt lat="42.88947" lon="0.88208">
        <ele>1067</ele>
        <time>2022-01-23T09:11:08Z</time>
      </trkpt>
      <trkpt lat="42.88947" lon="0.88195">
        <ele>1067</ele>
        <time>2022-01-23T09:11:19Z</time>
      </trkpt>
      <trkpt lat="42.88943" lon="0.88183">
        <ele>1067</ele>
        <time>2022-01-23T09:11:35Z</time>
      </trkpt>
      <trkpt lat="42.8894" lon="0.88171">
        <ele>1072</ele>
        <time>2022-01-23T09:11:57Z</time>
      </trkpt>
      <trkpt lat="42.88932" lon="0.88165">
        <ele>1072</ele>
        <time>2022-01-23T09:12:08Z</time>
      </trkpt>
      <trkpt lat="42.88932" lon="0.88153">
        <ele>1072</ele>
        <time>2022-01-23T09:12:20Z</time>
      </trkpt>
      <trkpt lat="42.88934" lon="0.88141">
        <ele>1072</ele>
        <time>2022-01-23T09:12:35Z</time>
      </trkpt>
      <trkpt lat="42.88926" lon="0.88134">
        <ele>1072</ele>
        <time>2022-01-23T09:12:58Z</time>
      </trkpt>
      <trkpt lat="42.8892" lon="0.88125">
        <ele>1072</ele>
        <time>2022-01-23T09:13:15Z</time>
      </trkpt>
      <trkpt lat="42.88919" lon="0.88112">
        <ele>1072</ele>
        <time>2022-01-23T09:13:28Z</time>
      </trkpt>
      <trkpt lat="42.88918" lon="0.881">
        <ele>1072</ele>
        <time>2022-01-23T09:13:42Z</time>
      </trkpt>
      <trkpt lat="42.88915" lon="0.88088">
        <ele>1072</ele>
        <time>2022-01-23T09:13:55Z</time>
      </trkpt>
      <trkpt lat="42.88912" lon="0.88076">
        <ele>1072</ele>
        <time>2022-01-23T09:14:08Z</time>
      </trkpt>
      <trkpt lat="42.88905" lon="0.88065">
        <ele>1072</ele>
        <time>2022-01-23T09:14:21Z</time>
      </trkpt>
      <trkpt lat="42.88904" lon="0.88052">
        <ele>1072</ele>
        <time>2022-01-23T09:14:29Z</time>
      </trkpt>
      <trkpt lat="42.889" lon="0.88041">
        <ele>1072</ele>
        <time>2022-01-23T09:14:49Z</time>
      </trkpt>
      <trkpt lat="42.88895" lon="0.8803">
        <ele>1072</ele>
        <time>2022-01-23T09:15:02Z</time>
      </trkpt>
      <trkpt lat="42.88895" lon="0.88017">
        <ele>1072</ele>
        <time>2022-01-23T09:15:23Z</time>
      </trkpt>
      <trkpt lat="42.88885" lon="0.88028">
        <ele>1072</ele>
        <time>2022-01-23T09:15:40Z</time>
      </trkpt>
      <trkpt lat="42.88875" lon="0.88026">
        <ele>1072</ele>
        <time>2022-01-23T09:15:58Z</time>
      </trkpt>
      <trkpt lat="42.88877" lon="0.88013">
        <ele>1107</ele>
        <time>2022-01-23T09:16:07Z</time>
      </trkpt>
      <trkpt lat="42.8887" lon="0.88007">
        <ele>1107</ele>
        <time>2022-01-23T09:16:44Z</time>
      </trkpt>
      <trkpt lat="42.8888" lon="0.88008">
        <ele>1107</ele>
        <time>2022-01-23T09:16:50Z</time>
      </trkpt>
      <trkpt lat="42.88872" lon="0.88013">
        <ele>1107</ele>
        <time>2022-01-23T09:17:02Z</time>
      </trkpt>
      <trkpt lat="42.88862" lon="0.88016">
        <ele>1107</ele>
        <time>2022-01-23T09:17:19Z</time>
      </trkpt>
      <trkpt lat="42.88852" lon="0.88019">
        <ele>1107</ele>
        <time>2022-01-23T09:17:29Z</time>
      </trkpt>
      <trkpt lat="42.88844" lon="0.88011">
        <ele>1107</ele>
        <time>2022-01-23T09:17:38Z</time>
      </trkpt>
      <trkpt lat="42.88835" lon="0.88014">
        <ele>1107</ele>
        <time>2022-01-23T09:17:51Z</time>
      </trkpt>
      <trkpt lat="42.88825" lon="0.88013">
        <ele>1107</ele>
        <time>2022-01-23T09:17:59Z</time>
      </trkpt>
      <trkpt lat="42.88815" lon="0.88012">
        <ele>1107</ele>
        <time>2022-01-23T09:18:11Z</time>
      </trkpt>
      <trkpt lat="42.88807" lon="0.8802">
        <ele>1107</ele>
        <time>2022-01-23T09:18:28Z</time>
      </trkpt>
      <trkpt lat="42.88799" lon="0.88025">
        <ele>1107</ele>
        <time>2022-01-23T09:18:40Z</time>
      </trkpt>
      <trkpt lat="42.88787" lon="0.88027">
        <ele>1111</ele>
        <time>2022-01-23T09:18:47Z</time>
      </trkpt>
      <trkpt lat="42.88777" lon="0.88029">
        <ele>1111</ele>
        <time>2022-01-23T09:19:06Z</time>
      </trkpt>
      <trkpt lat="42.88774" lon="0.88042">
        <ele>1111</ele>
        <time>2022-01-23T09:19:10Z</time>
      </trkpt>
      <trkpt lat="42.88776" lon="0.88055">
        <ele>1116</ele>
        <time>2022-01-23T09:19:17Z</time>
      </trkpt>
      <trkpt lat="42.88769" lon="0.88035">
        <ele>1116</ele>
        <time>2022-01-23T09:19:39Z</time>
      </trkpt>
      <trkpt lat="42.88773" lon="0.8802">
        <ele>1116</ele>
        <time>2022-01-23T09:19:40Z</time>
      </trkpt>
      <trkpt lat="42.88774" lon="0.88004">
        <ele>1116</ele>
        <time>2022-01-23T09:19:55Z</time>
      </trkpt>
      <trkpt lat="42.88781" lon="0.87997">
        <ele>1116</ele>
        <time>2022-01-23T09:20:28Z</time>
      </trkpt>
      <trkpt lat="42.88779" lon="0.87985">
        <ele>1116</ele>
        <time>2022-01-23T09:21:09Z</time>
      </trkpt>
      <trkpt lat="42.88774" lon="0.87973">
        <ele>1116</ele>
        <time>2022-01-23T09:21:28Z</time>
      </trkpt>
      <trkpt lat="42.88774" lon="0.8796">
        <ele>1116</ele>
        <time>2022-01-23T09:23:09Z</time>
      </trkpt>
      <trkpt lat="42.88772" lon="0.87973">
        <ele>1116</ele>
        <time>2022-01-23T09:23:21Z</time>
      </trkpt>
      <trkpt lat="42.88773" lon="0.87959">
        <ele>1116</ele>
        <time>2022-01-23T09:25:44Z</time>
      </trkpt>
      <trkpt lat="42.88776" lon="0.87947">
        <ele>1116</ele>
        <time>2022-01-23T09:26:01Z</time>
      </trkpt>
      <trkpt lat="42.88767" lon="0.87949">
        <ele>1116</ele>
        <time>2022-01-23T09:26:53Z</time>
      </trkpt>
      <trkpt lat="42.88757" lon="0.87951">
        <ele>1116</ele>
        <time>2022-01-23T09:27:25Z</time>
      </trkpt>
      <trkpt lat="42.88748" lon="0.8795">
        <ele>1116</ele>
        <time>2022-01-23T09:27:36Z</time>
      </trkpt>
      <trkpt lat="42.88738" lon="0.8795">
        <ele>1116</ele>
        <time>2022-01-23T09:27:55Z</time>
      </trkpt>
      <trkpt lat="42.88731" lon="0.87957">
        <ele>1116</ele>
        <time>2022-01-23T09:28:11Z</time>
      </trkpt>
      <trkpt lat="42.88723" lon="0.87963">
        <ele>1116</ele>
        <time>2022-01-23T09:28:26Z</time>
      </trkpt>
      <trkpt lat="42.88714" lon="0.87964">
        <ele>1176</ele>
        <time>2022-01-23T09:28:47Z</time>
      </trkpt>
      <trkpt lat="42.88706" lon="0.87974">
        <ele>1176</ele>
        <time>2022-01-23T09:28:55Z</time>
      </trkpt>
      <trkpt lat="42.88697" lon="0.87971">
        <ele>1176</ele>
        <time>2022-01-23T09:29:06Z</time>
      </trkpt>
      <trkpt lat="42.8869" lon="0.87978">
        <ele>1176</ele>
        <time>2022-01-23T09:29:34Z</time>
      </trkpt>
      <trkpt lat="42.88681" lon="0.87975">
        <ele>1176</ele>
        <time>2022-01-23T09:29:48Z</time>
      </trkpt>
      <trkpt lat="42.88674" lon="0.87984">
        <ele>1176</ele>
        <time>2022-01-23T09:29:58Z</time>
      </trkpt>
      <trkpt lat="42.88665" lon="0.87985">
        <ele>1176</ele>
        <time>2022-01-23T09:30:06Z</time>
      </trkpt>
      <trkpt lat="42.88662" lon="0.87972">
        <ele>1176</ele>
        <time>2022-01-23T09:30:46Z</time>
      </trkpt>
      <trkpt lat="42.88659" lon="0.87984">
        <ele>1176</ele>
        <time>2022-01-23T09:30:58Z</time>
      </trkpt>
      <trkpt lat="42.88648" lon="0.87982">
        <ele>1176</ele>
        <time>2022-01-23T09:31:10Z</time>
      </trkpt>
      <trkpt lat="42.88639" lon="0.87984">
        <ele>1176</ele>
        <time>2022-01-23T09:31:24Z</time>
      </trkpt>
      <trkpt lat="42.88632" lon="0.87975">
        <ele>1176</ele>
        <time>2022-01-23T09:31:35Z</time>
      </trkpt>
      <trkpt lat="42.88622" lon="0.87979">
        <ele>1176</ele>
        <time>2022-01-23T09:31:41Z</time>
      </trkpt>
      <trkpt lat="42.88612" lon="0.87977">
        <ele>1176</ele>
        <time>2022-01-23T09:31:55Z</time>
      </trkpt>
      <trkpt lat="42.88604" lon="0.87971">
        <ele>1176</ele>
        <time>2022-01-23T09:32:12Z</time>
      </trkpt>
      <trkpt lat="42.88595" lon="0.8797">
        <ele>1176</ele>
        <time>2022-01-23T09:32:33Z</time>
      </trkpt>
      <trkpt lat="42.88585" lon="0.87964">
        <ele>1176</ele>
        <time>2022-01-23T09:32:45Z</time>
      </trkpt>
      <trkpt lat="42.88576" lon="0.87957">
        <ele>1176</ele>
        <time>2022-01-23T09:32:59Z</time>
      </trkpt>
      <trkpt lat="42.88569" lon="0.87947">
        <ele>1176</ele>
        <time>2022-01-23T09:33:21Z</time>
      </trkpt>
      <trkpt lat="42.8856" lon="0.87947">
        <ele>1176</ele>
        <time>2022-01-23T09:33:30Z</time>
      </trkpt>
      <trkpt lat="42.88553" lon="0.87939">
        <ele>1176</ele>
        <time>2022-01-23T09:33:43Z</time>
      </trkpt>
      <trkpt lat="42.88548" lon="0.87927">
        <ele>1176</ele>
        <time>2022-01-23T09:34:01Z</time>
      </trkpt>
      <trkpt lat="42.88543" lon="0.87916">
        <ele>1176</ele>
        <time>2022-01-23T09:34:18Z</time>
      </trkpt>
      <trkpt lat="42.88535" lon="0.87906">
        <ele>1176</ele>
        <time>2022-01-23T09:34:34Z</time>
      </trkpt>
      <trkpt lat="42.88525" lon="0.87916">
        <ele>1176</ele>
        <time>2022-01-23T09:34:45Z</time>
      </trkpt>
      <trkpt lat="42.8852" lon="0.87905">
        <ele>1176</ele>
        <time>2022-01-23T09:34:56Z</time>
      </trkpt>
      <trkpt lat="42.88513" lon="0.87896">
        <ele>1176</ele>
        <time>2022-01-23T09:35:15Z</time>
      </trkpt>
      <trkpt lat="42.88511" lon="0.87884">
        <ele>1176</ele>
        <time>2022-01-23T09:35:26Z</time>
      </trkpt>
      <trkpt lat="42.88499" lon="0.8788">
        <ele>1176</ele>
        <time>2022-01-23T09:35:41Z</time>
      </trkpt>
      <trkpt lat="42.8849" lon="0.87883">
        <ele>1176</ele>
        <time>2022-01-23T09:35:44Z</time>
      </trkpt>
      <trkpt lat="42.88485" lon="0.87896">
        <ele>1237</ele>
        <time>2022-01-23T09:35:47Z</time>
      </trkpt>
      <trkpt lat="42.88488" lon="0.87884">
        <ele>1237</ele>
        <time>2022-01-23T09:35:52Z</time>
      </trkpt>
      <trkpt lat="42.88477" lon="0.87883">
        <ele>1240</ele>
        <time>2022-01-23T09:36:07Z</time>
      </trkpt>
      <trkpt lat="42.88473" lon="0.87872">
        <ele>1240</ele>
        <time>2022-01-23T09:36:23Z</time>
      </trkpt>
      <trkpt lat="42.88478" lon="0.8786">
        <ele>1240</ele>
        <time>2022-01-23T09:36:39Z</time>
      </trkpt>
      <trkpt lat="42.88467" lon="0.87875">
        <ele>1240</ele>
        <time>2022-01-23T09:37:01Z</time>
      </trkpt>
      <trkpt lat="42.88471" lon="0.87863">
        <ele>1240</ele>
        <time>2022-01-23T09:37:16Z</time>
      </trkpt>
      <trkpt lat="42.88476" lon="0.87851">
        <ele>1240</ele>
        <time>2022-01-23T09:37:31Z</time>
      </trkpt>
      <trkpt lat="42.88469" lon="0.87844">
        <ele>1240</ele>
        <time>2022-01-23T09:37:38Z</time>
      </trkpt>
      <trkpt lat="42.8846" lon="0.87836">
        <ele>1240</ele>
        <time>2022-01-23T09:37:54Z</time>
      </trkpt>
      <trkpt lat="42.88455" lon="0.87826">
        <ele>1240</ele>
        <time>2022-01-23T09:38:10Z</time>
      </trkpt>
      <trkpt lat="42.88452" lon="0.87813">
        <ele>1240</ele>
        <time>2022-01-23T09:38:31Z</time>
      </trkpt>
      <trkpt lat="42.88447" lon="0.87802">
        <ele>1240</ele>
        <time>2022-01-23T09:38:39Z</time>
      </trkpt>
      <trkpt lat="42.88444" lon="0.87791">
        <ele>1240</ele>
        <time>2022-01-23T09:38:53Z</time>
      </trkpt>
      <trkpt lat="42.88438" lon="0.87782">
        <ele>1240</ele>
        <time>2022-01-23T09:39:10Z</time>
      </trkpt>
      <trkpt lat="42.88428" lon="0.87777">
        <ele>1240</ele>
        <time>2022-01-23T09:39:28Z</time>
      </trkpt>
      <trkpt lat="42.8842" lon="0.8777">
        <ele>1240</ele>
        <time>2022-01-23T09:39:46Z</time>
      </trkpt>
      <trkpt lat="42.88421" lon="0.87757">
        <ele>1240</ele>
        <time>2022-01-23T09:40:01Z</time>
      </trkpt>
      <trkpt lat="42.88416" lon="0.87745">
        <ele>1272</ele>
        <time>2022-01-23T09:40:17Z</time>
      </trkpt>
      <trkpt lat="42.88408" lon="0.87737">
        <ele>1272</ele>
        <time>2022-01-23T09:40:33Z</time>
      </trkpt>
      <trkpt lat="42.88399" lon="0.87734">
        <ele>1272</ele>
        <time>2022-01-23T09:40:43Z</time>
      </trkpt>
      <trkpt lat="42.8839" lon="0.87734">
        <ele>1272</ele>
        <time>2022-01-23T09:41:00Z</time>
      </trkpt>
      <trkpt lat="42.88384" lon="0.87725">
        <ele>1272</ele>
        <time>2022-01-23T09:41:10Z</time>
      </trkpt>
      <trkpt lat="42.88385" lon="0.87712">
        <ele>1272</ele>
        <time>2022-01-23T09:41:24Z</time>
      </trkpt>
      <trkpt lat="42.88393" lon="0.87715">
        <ele>1272</ele>
        <time>2022-01-23T09:42:23Z</time>
      </trkpt>
      <trkpt lat="42.88384" lon="0.87716">
        <ele>1272</ele>
        <time>2022-01-23T09:43:11Z</time>
      </trkpt>
      <trkpt lat="42.88381" lon="0.87739">
        <ele>1272</ele>
        <time>2022-01-23T09:44:11Z</time>
      </trkpt>
      <trkpt lat="42.88384" lon="0.87727">
        <ele>1272</ele>
        <time>2022-01-23T09:44:14Z</time>
      </trkpt>
      <trkpt lat="42.88376" lon="0.87719">
        <ele>1272</ele>
        <time>2022-01-23T09:46:25Z</time>
      </trkpt>
      <trkpt lat="42.88368" lon="0.87713">
        <ele>1272</ele>
        <time>2022-01-23T09:46:38Z</time>
      </trkpt>
      <trkpt lat="42.88359" lon="0.87713">
        <ele>1272</ele>
        <time>2022-01-23T09:46:48Z</time>
      </trkpt>
      <trkpt lat="42.88357" lon="0.877">
        <ele>1272</ele>
        <time>2022-01-23T09:47:08Z</time>
      </trkpt>
      <trkpt lat="42.88353" lon="0.87689">
        <ele>1272</ele>
        <time>2022-01-23T09:47:24Z</time>
      </trkpt>
      <trkpt lat="42.88354" lon="0.87677">
        <ele>1272</ele>
        <time>2022-01-23T09:47:39Z</time>
      </trkpt>
      <trkpt lat="42.88363" lon="0.87677">
        <ele>1272</ele>
        <time>2022-01-23T09:48:03Z</time>
      </trkpt>
      <trkpt lat="42.88373" lon="0.87673">
        <ele>1272</ele>
        <time>2022-01-23T09:48:21Z</time>
      </trkpt>
      <trkpt lat="42.88376" lon="0.87661">
        <ele>1272</ele>
        <time>2022-01-23T09:48:54Z</time>
      </trkpt>
      <trkpt lat="42.88369" lon="0.87652">
        <ele>1272</ele>
        <time>2022-01-23T09:49:09Z</time>
      </trkpt>
      <trkpt lat="42.8836" lon="0.87653">
        <ele>1307</ele>
        <time>2022-01-23T09:49:17Z</time>
      </trkpt>
      <trkpt lat="42.88362" lon="0.8764">
        <ele>1307</ele>
        <time>2022-01-23T09:49:34Z</time>
      </trkpt>
      <trkpt lat="42.88366" lon="0.87628">
        <ele>1307</ele>
        <time>2022-01-23T09:49:48Z</time>
      </trkpt>
      <trkpt lat="42.88376" lon="0.87631">
        <ele>1307</ele>
        <time>2022-01-23T09:50:02Z</time>
      </trkpt>
      <trkpt lat="42.88384" lon="0.87634">
        <ele>1307</ele>
        <time>2022-01-23T09:50:12Z</time>
      </trkpt>
      <trkpt lat="42.88383" lon="0.8762">
        <ele>1307</ele>
        <time>2022-01-23T09:50:52Z</time>
      </trkpt>
      <trkpt lat="42.88379" lon="0.87609">
        <ele>1307</ele>
        <time>2022-01-23T09:51:05Z</time>
      </trkpt>
      <trkpt lat="42.88378" lon="0.87596">
        <ele>1307</ele>
        <time>2022-01-23T09:51:15Z</time>
      </trkpt>
      <trkpt lat="42.88378" lon="0.87584">
        <ele>1307</ele>
        <time>2022-01-23T09:51:26Z</time>
      </trkpt>
      <trkpt lat="42.88378" lon="0.8757">
        <ele>1307</ele>
        <time>2022-01-23T09:51:45Z</time>
      </trkpt>
      <trkpt lat="42.88373" lon="0.8756">
        <ele>1307</ele>
        <time>2022-01-23T09:51:56Z</time>
      </trkpt>
      <trkpt lat="42.88366" lon="0.8755">
        <ele>1307</ele>
        <time>2022-01-23T09:52:10Z</time>
      </trkpt>
      <trkpt lat="42.88368" lon="0.87537">
        <ele>1307</ele>
        <time>2022-01-23T09:52:48Z</time>
      </trkpt>
      <trkpt lat="42.88362" lon="0.87527">
        <ele>1307</ele>
        <time>2022-01-23T09:53:29Z</time>
      </trkpt>
      <trkpt lat="42.88355" lon="0.87518">
        <ele>1307</ele>
        <time>2022-01-23T09:53:49Z</time>
      </trkpt>
      <trkpt lat="42.88351" lon="0.87508">
        <ele>1307</ele>
        <time>2022-01-23T09:54:02Z</time>
      </trkpt>
      <trkpt lat="42.88342" lon="0.87504">
        <ele>1307</ele>
        <time>2022-01-23T09:54:18Z</time>
      </trkpt>
      <trkpt lat="42.88335" lon="0.87496">
        <ele>1307</ele>
        <time>2022-01-23T09:54:31Z</time>
      </trkpt>
      <trkpt lat="42.88327" lon="0.87489">
        <ele>1307</ele>
        <time>2022-01-23T09:54:43Z</time>
      </trkpt>
      <trkpt lat="42.88319" lon="0.87483">
        <ele>1307</ele>
        <time>2022-01-23T09:54:55Z</time>
      </trkpt>
      <trkpt lat="42.8831" lon="0.87486">
        <ele>1307</ele>
        <time>2022-01-23T09:55:25Z</time>
      </trkpt>
      <trkpt lat="42.88301" lon="0.87493">
        <ele>1307</ele>
        <time>2022-01-23T09:56:09Z</time>
      </trkpt>
      <trkpt lat="42.88292" lon="0.87492">
        <ele>1307</ele>
        <time>2022-01-23T09:57:18Z</time>
      </trkpt>
      <trkpt lat="42.88283" lon="0.87486">
        <ele>1357</ele>
        <time>2022-01-23T09:57:37Z</time>
      </trkpt>
      <trkpt lat="42.88279" lon="0.87475">
        <ele>1357</ele>
        <time>2022-01-23T09:57:54Z</time>
      </trkpt>
      <trkpt lat="42.88278" lon="0.87463">
        <ele>1357</ele>
        <time>2022-01-23T09:58:06Z</time>
      </trkpt>
      <trkpt lat="42.88272" lon="0.87452">
        <ele>1357</ele>
        <time>2022-01-23T09:59:35Z</time>
      </trkpt>
      <trkpt lat="42.88268" lon="0.87463">
        <ele>1357</ele>
        <time>2022-01-23T10:00:39Z</time>
      </trkpt>
      <trkpt lat="42.88272" lon="0.87452">
        <ele>1357</ele>
        <time>2022-01-23T10:02:35Z</time>
      </trkpt>
      <trkpt lat="42.88266" lon="0.87464">
        <ele>1357</ele>
        <time>2022-01-23T10:06:25Z</time>
      </trkpt>
      <trkpt lat="42.88272" lon="0.87454">
        <ele>1369</ele>
        <time>2022-01-23T10:06:47Z</time>
      </trkpt>
      <trkpt lat="42.88266" lon="0.87464">
        <ele>1369</ele>
        <time>2022-01-23T10:07:26Z</time>
      </trkpt>
      <trkpt lat="42.88273" lon="0.87456">
        <ele>1369</ele>
        <time>2022-01-23T10:08:08Z</time>
      </trkpt>
      <trkpt lat="42.88264" lon="0.87466">
        <ele>1369</ele>
        <time>2022-01-23T10:13:45Z</time>
      </trkpt>
      <trkpt lat="42.88256" lon="0.87479">
        <ele>1369</ele>
        <time>2022-01-23T10:13:48Z</time>
      </trkpt>
      <trkpt lat="42.8826" lon="0.87467">
        <ele>1369</ele>
        <time>2022-01-23T10:13:55Z</time>
      </trkpt>
      <trkpt lat="42.88268" lon="0.8746">
        <ele>1369</ele>
        <time>2022-01-23T10:14:18Z</time>
      </trkpt>
      <trkpt lat="42.88275" lon="0.87453">
        <ele>1369</ele>
        <time>2022-01-23T10:15:38Z</time>
      </trkpt>
      <trkpt lat="42.8827" lon="0.87443">
        <ele>1369</ele>
        <time>2022-01-23T10:19:58Z</time>
      </trkpt>
      <trkpt lat="42.88271" lon="0.87431">
        <ele>1369</ele>
        <time>2022-01-23T10:20:21Z</time>
      </trkpt>
      <trkpt lat="42.88266" lon="0.87419">
        <ele>1369</ele>
        <time>2022-01-23T10:20:39Z</time>
      </trkpt>
      <trkpt lat="42.88261" lon="0.87409">
        <ele>1369</ele>
        <time>2022-01-23T10:20:58Z</time>
      </trkpt>
      <trkpt lat="42.88259" lon="0.87397">
        <ele>1369</ele>
        <time>2022-01-23T10:21:14Z</time>
      </trkpt>
      <trkpt lat="42.88249" lon="0.87395">
        <ele>1369</ele>
        <time>2022-01-23T10:21:31Z</time>
      </trkpt>
      <trkpt lat="42.88243" lon="0.87385">
        <ele>1369</ele>
        <time>2022-01-23T10:21:52Z</time>
      </trkpt>
      <trkpt lat="42.88238" lon="0.87375">
        <ele>1369</ele>
        <time>2022-01-23T10:22:11Z</time>
      </trkpt>
      <trkpt lat="42.88232" lon="0.87363">
        <ele>1369</ele>
        <time>2022-01-23T10:22:31Z</time>
      </trkpt>
      <trkpt lat="42.88234" lon="0.8735">
        <ele>1369</ele>
        <time>2022-01-23T10:22:51Z</time>
      </trkpt>
      <trkpt lat="42.88225" lon="0.87342">
        <ele>1402</ele>
        <time>2022-01-23T10:23:27Z</time>
      </trkpt>
      <trkpt lat="42.88215" lon="0.87343">
        <ele>1402</ele>
        <time>2022-01-23T10:23:43Z</time>
      </trkpt>
      <trkpt lat="42.88206" lon="0.87342">
        <ele>1402</ele>
        <time>2022-01-23T10:24:10Z</time>
      </trkpt>
      <trkpt lat="42.88197" lon="0.87344">
        <ele>1402</ele>
        <time>2022-01-23T10:24:21Z</time>
      </trkpt>
      <trkpt lat="42.88192" lon="0.87333">
        <ele>1402</ele>
        <time>2022-01-23T10:24:44Z</time>
      </trkpt>
      <trkpt lat="42.88195" lon="0.8732">
        <ele>1402</ele>
        <time>2022-01-23T10:24:59Z</time>
      </trkpt>
      <trkpt lat="42.8819" lon="0.87308">
        <ele>1402</ele>
        <time>2022-01-23T10:25:31Z</time>
      </trkpt>
      <trkpt lat="42.88191" lon="0.87296">
        <ele>1402</ele>
        <time>2022-01-23T10:25:48Z</time>
      </trkpt>
      <trkpt lat="42.88186" lon="0.87284">
        <ele>1426</ele>
        <time>2022-01-23T10:26:07Z</time>
      </trkpt>
      <trkpt lat="42.88185" lon="0.87272">
        <ele>1426</ele>
        <time>2022-01-23T10:26:28Z</time>
      </trkpt>
      <trkpt lat="42.88185" lon="0.87259">
        <ele>1426</ele>
        <time>2022-01-23T10:26:53Z</time>
      </trkpt>
      <trkpt lat="42.88183" lon="0.87247">
        <ele>1426</ele>
        <time>2022-01-23T10:27:14Z</time>
      </trkpt>
      <trkpt lat="42.88181" lon="0.87235">
        <ele>1426</ele>
        <time>2022-01-23T10:27:34Z</time>
      </trkpt>
      <trkpt lat="42.88184" lon="0.87222">
        <ele>1426</ele>
        <time>2022-01-23T10:27:56Z</time>
      </trkpt>
      <trkpt lat="42.88187" lon="0.8721">
        <ele>1426</ele>
        <time>2022-01-23T10:28:13Z</time>
      </trkpt>
      <trkpt lat="42.88188" lon="0.87198">
        <ele>1426</ele>
        <time>2022-01-23T10:28:40Z</time>
      </trkpt>
      <trkpt lat="42.88191" lon="0.87186">
        <ele>1426</ele>
        <time>2022-01-23T10:29:26Z</time>
      </trkpt>
      <trkpt lat="42.88186" lon="0.87174">
        <ele>1426</ele>
        <time>2022-01-23T10:29:50Z</time>
      </trkpt>
      <trkpt lat="42.88188" lon="0.87162">
        <ele>1426</ele>
        <time>2022-01-23T10:30:44Z</time>
      </trkpt>
      <trkpt lat="42.88183" lon="0.8715">
        <ele>1426</ele>
        <time>2022-01-23T10:31:11Z</time>
      </trkpt>
      <trkpt lat="42.88178" lon="0.87139">
        <ele>1426</ele>
        <time>2022-01-23T10:31:30Z</time>
      </trkpt>
      <trkpt lat="42.88176" lon="0.87127">
        <ele>1426</ele>
        <time>2022-01-23T10:32:01Z</time>
      </trkpt>
      <trkpt lat="42.88174" lon="0.87115">
        <ele>1426</ele>
        <time>2022-01-23T10:32:18Z</time>
      </trkpt>
      <trkpt lat="42.88169" lon="0.87103">
        <ele>1426</ele>
        <time>2022-01-23T10:32:36Z</time>
      </trkpt>
      <trkpt lat="42.88163" lon="0.87094">
        <ele>1426</ele>
        <time>2022-01-23T10:33:05Z</time>
      </trkpt>
      <trkpt lat="42.8816" lon="0.87082">
        <ele>1426</ele>
        <time>2022-01-23T10:33:28Z</time>
      </trkpt>
      <trkpt lat="42.88157" lon="0.8707">
        <ele>1426</ele>
        <time>2022-01-23T10:33:56Z</time>
      </trkpt>
      <trkpt lat="42.8815" lon="0.87061">
        <ele>1426</ele>
        <time>2022-01-23T10:34:15Z</time>
      </trkpt>
      <trkpt lat="42.88143" lon="0.87052">
        <ele>1426</ele>
        <time>2022-01-23T10:35:05Z</time>
      </trkpt>
      <trkpt lat="42.88139" lon="0.87041">
        <ele>1426</ele>
        <time>2022-01-23T10:35:23Z</time>
      </trkpt>
      <trkpt lat="42.88137" lon="0.87028">
        <ele>1426</ele>
        <time>2022-01-23T10:35:40Z</time>
      </trkpt>
      <trkpt lat="42.88137" lon="0.87015">
        <ele>1426</ele>
        <time>2022-01-23T10:35:58Z</time>
      </trkpt>
      <trkpt lat="42.88134" lon="0.87003">
        <ele>1426</ele>
        <time>2022-01-23T10:36:15Z</time>
      </trkpt>
      <trkpt lat="42.88134" lon="0.86991">
        <ele>1426</ele>
        <time>2022-01-23T10:36:35Z</time>
      </trkpt>
      <trkpt lat="42.88134" lon="0.86978">
        <ele>1426</ele>
        <time>2022-01-23T10:36:51Z</time>
      </trkpt>
      <trkpt lat="42.88136" lon="0.86966">
        <ele>1426</ele>
        <time>2022-01-23T10:40:21Z</time>
      </trkpt>
      <trkpt lat="42.88134" lon="0.86955">
        <ele>1426</ele>
        <time>2022-01-23T10:40:46Z</time>
      </trkpt>
      <trkpt lat="42.88131" lon="0.86943">
        <ele>1426</ele>
        <time>2022-01-23T10:41:08Z</time>
      </trkpt>
      <trkpt lat="42.88128" lon="0.86931">
        <ele>1426</ele>
        <time>2022-01-23T10:41:31Z</time>
      </trkpt>
      <trkpt lat="42.88126" lon="0.86918">
        <ele>1426</ele>
        <time>2022-01-23T10:41:53Z</time>
      </trkpt>
      <trkpt lat="42.88126" lon="0.86905">
        <ele>1538</ele>
        <time>2022-01-23T10:42:17Z</time>
      </trkpt>
      <trkpt lat="42.88122" lon="0.86893">
        <ele>1538</ele>
        <time>2022-01-23T10:42:45Z</time>
      </trkpt>
      <trkpt lat="42.88123" lon="0.86881">
        <ele>1538</ele>
        <time>2022-01-23T10:43:13Z</time>
      </trkpt>
      <trkpt lat="42.8812" lon="0.8687">
        <ele>1550</ele>
        <time>2022-01-23T10:43:37Z</time>
      </trkpt>
      <trkpt lat="42.88117" lon="0.86858">
        <ele>1550</ele>
        <time>2022-01-23T10:44:31Z</time>
      </trkpt>
      <trkpt lat="42.8811" lon="0.8685">
        <ele>1550</ele>
        <time>2022-01-23T10:44:49Z</time>
      </trkpt>
      <trkpt lat="42.88105" lon="0.86838">
        <ele>1550</ele>
        <time>2022-01-23T10:45:22Z</time>
      </trkpt>
      <trkpt lat="42.88099" lon="0.86829">
        <ele>1550</ele>
        <time>2022-01-23T10:46:09Z</time>
      </trkpt>
      <trkpt lat="42.88091" lon="0.86823">
        <ele>1550</ele>
        <time>2022-01-23T10:46:38Z</time>
      </trkpt>
      <trkpt lat="42.8809" lon="0.8681">
        <ele>1550</ele>
        <time>2022-01-23T10:47:19Z</time>
      </trkpt>
      <trkpt lat="42.88082" lon="0.86803">
        <ele>1550</ele>
        <time>2022-01-23T10:47:55Z</time>
      </trkpt>
      <trkpt lat="42.88083" lon="0.8679">
        <ele>1550</ele>
        <time>2022-01-23T10:48:26Z</time>
      </trkpt>
      <trkpt lat="42.88082" lon="0.86778">
        <ele>1550</ele>
        <time>2022-01-23T10:48:42Z</time>
      </trkpt>
      <trkpt lat="42.88073" lon="0.86778">
        <ele>1550</ele>
        <time>2022-01-23T10:49:06Z</time>
      </trkpt>
      <trkpt lat="42.88067" lon="0.86786">
        <ele>1550</ele>
        <time>2022-01-23T10:49:22Z</time>
      </trkpt>
      <trkpt lat="42.88058" lon="0.86783">
        <ele>1550</ele>
        <time>2022-01-23T10:52:06Z</time>
      </trkpt>
      <trkpt lat="42.88053" lon="0.86772">
        <ele>1610</ele>
        <time>2022-01-23T10:53:07Z</time>
      </trkpt>
      <trkpt lat="42.88045" lon="0.86766">
        <ele>1610</ele>
        <time>2022-01-23T10:54:09Z</time>
      </trkpt>
      <trkpt lat="42.88043" lon="0.86778">
        <ele>1610</ele>
        <time>2022-01-23T10:55:06Z</time>
      </trkpt>
      <trkpt lat="42.88036" lon="0.86786">
        <ele>1610</ele>
        <time>2022-01-23T10:55:19Z</time>
      </trkpt>
      <trkpt lat="42.88027" lon="0.86785">
        <ele>1610</ele>
        <time>2022-01-23T10:55:52Z</time>
      </trkpt>
      <trkpt lat="42.88019" lon="0.86778">
        <ele>1610</ele>
        <time>2022-01-23T10:56:13Z</time>
      </trkpt>
      <trkpt lat="42.88015" lon="0.86768">
        <ele>1610</ele>
        <time>2022-01-23T10:56:43Z</time>
      </trkpt>
      <trkpt lat="42.88015" lon="0.86755">
        <ele>1610</ele>
        <time>2022-01-23T10:57:18Z</time>
      </trkpt>
      <trkpt lat="42.88006" lon="0.86755">
        <ele>1610</ele>
        <time>2022-01-23T11:06:32Z</time>
      </trkpt>
      <trkpt lat="42.88007" lon="0.86743">
        <ele>1610</ele>
        <time>2022-01-23T11:07:02Z</time>
      </trkpt>
      <trkpt lat="42.88012" lon="0.86732">
        <ele>1610</ele>
        <time>2022-01-23T11:07:14Z</time>
      </trkpt>
      <trkpt lat="42.88013" lon="0.8672">
        <ele>1610</ele>
        <time>2022-01-23T11:07:35Z</time>
      </trkpt>
      <trkpt lat="42.88004" lon="0.86716">
        <ele>1610</ele>
        <time>2022-01-23T11:08:03Z</time>
      </trkpt>
      <trkpt lat="42.88005" lon="0.86704">
        <ele>1610</ele>
        <time>2022-01-23T11:08:24Z</time>
      </trkpt>
      <trkpt lat="42.88001" lon="0.86693">
        <ele>1610</ele>
        <time>2022-01-23T11:08:58Z</time>
      </trkpt>
      <trkpt lat="42.88004" lon="0.8668">
        <ele>1610</ele>
        <time>2022-01-23T11:09:19Z</time>
      </trkpt>
      <trkpt lat="42.87997" lon="0.86672">
        <ele>1667</ele>
        <time>2022-01-23T11:09:48Z</time>
      </trkpt>
      <trkpt lat="42.87996" lon="0.8666">
        <ele>1667</ele>
        <time>2022-01-23T11:10:09Z</time>
      </trkpt>
      <trkpt lat="42.87998" lon="0.86648">
        <ele>1667</ele>
        <time>2022-01-23T11:10:41Z</time>
      </trkpt>
      <trkpt lat="42.87997" lon="0.86635">
        <ele>1667</ele>
        <time>2022-01-23T11:11:02Z</time>
      </trkpt>
      <trkpt lat="42.87999" lon="0.86622">
        <ele>1667</ele>
        <time>2022-01-23T11:11:24Z</time>
      </trkpt>
      <trkpt lat="42.88001" lon="0.8661">
        <ele>1667</ele>
        <time>2022-01-23T11:11:39Z</time>
      </trkpt>
      <trkpt lat="42.87993" lon="0.86603">
        <ele>1667</ele>
        <time>2022-01-23T11:11:55Z</time>
      </trkpt>
      <trkpt lat="42.87995" lon="0.86591">
        <ele>1667</ele>
        <time>2022-01-23T11:12:10Z</time>
      </trkpt>
      <trkpt lat="42.87994" lon="0.86578">
        <ele>1667</ele>
        <time>2022-01-23T11:15:25Z</time>
      </trkpt>
      <trkpt lat="42.87993" lon="0.86565">
        <ele>1697</ele>
        <time>2022-01-23T11:15:37Z</time>
      </trkpt>
      <trkpt lat="42.87992" lon="0.86553">
        <ele>1697</ele>
        <time>2022-01-23T11:15:58Z</time>
      </trkpt>
      <trkpt lat="42.8799" lon="0.86541">
        <ele>1697</ele>
        <time>2022-01-23T11:16:20Z</time>
      </trkpt>
      <trkpt lat="42.87989" lon="0.86529">
        <ele>1697</ele>
        <time>2022-01-23T11:16:53Z</time>
      </trkpt>
      <trkpt lat="42.87991" lon="0.86516">
        <ele>1697</ele>
        <time>2022-01-23T11:17:16Z</time>
      </trkpt>
      <trkpt lat="42.87989" lon="0.86504">
        <ele>1697</ele>
        <time>2022-01-23T11:17:44Z</time>
      </trkpt>
      <trkpt lat="42.87987" lon="0.86492">
        <ele>1697</ele>
        <time>2022-01-23T11:18:06Z</time>
      </trkpt>
      <trkpt lat="42.87984" lon="0.8648">
        <ele>1697</ele>
        <time>2022-01-23T11:18:24Z</time>
      </trkpt>
      <trkpt lat="42.87984" lon="0.86467">
        <ele>1697</ele>
        <time>2022-01-23T11:18:45Z</time>
      </trkpt>
      <trkpt lat="42.87983" lon="0.86455">
        <ele>1697</ele>
        <time>2022-01-23T11:19:04Z</time>
      </trkpt>
      <trkpt lat="42.87981" lon="0.86443">
        <ele>1697</ele>
        <time>2022-01-23T11:23:43Z</time>
      </trkpt>
      <trkpt lat="42.87979" lon="0.8643">
        <ele>1697</ele>
        <time>2022-01-23T11:23:56Z</time>
      </trkpt>
      <trkpt lat="42.87976" lon="0.86417">
        <ele>1697</ele>
        <time>2022-01-23T11:24:08Z</time>
      </trkpt>
      <trkpt lat="42.8797" lon="0.86406">
        <ele>1697</ele>
        <time>2022-01-23T11:24:23Z</time>
      </trkpt>
      <trkpt lat="42.87967" lon="0.86393">
        <ele>1697</ele>
        <time>2022-01-23T11:24:40Z</time>
      </trkpt>
      <trkpt lat="42.8796" lon="0.86383">
        <ele>1697</ele>
        <time>2022-01-23T11:24:54Z</time>
      </trkpt>
      <trkpt lat="42.87956" lon="0.86372">
        <ele>1746</ele>
        <time>2022-01-23T11:25:07Z</time>
      </trkpt>
      <trkpt lat="42.8795" lon="0.86361">
        <ele>1746</ele>
        <time>2022-01-23T11:25:19Z</time>
      </trkpt>
      <trkpt lat="42.87944" lon="0.86351">
        <ele>1748</ele>
        <time>2022-01-23T11:25:38Z</time>
      </trkpt>
      <trkpt lat="42.8794" lon="0.86339">
        <ele>1748</ele>
        <time>2022-01-23T11:25:54Z</time>
      </trkpt>
      <trkpt lat="42.87935" lon="0.86329">
        <ele>1748</ele>
        <time>2022-01-23T11:26:08Z</time>
      </trkpt>
      <trkpt lat="42.87929" lon="0.86319">
        <ele>1748</ele>
        <time>2022-01-23T11:26:16Z</time>
      </trkpt>
      <trkpt lat="42.87926" lon="0.86307">
        <ele>1748</ele>
        <time>2022-01-23T11:26:30Z</time>
      </trkpt>
      <trkpt lat="42.87918" lon="0.863">
        <ele>1748</ele>
        <time>2022-01-23T11:26:48Z</time>
      </trkpt>
      <trkpt lat="42.87911" lon="0.86292">
        <ele>1748</ele>
        <time>2022-01-23T11:27:04Z</time>
      </trkpt>
      <trkpt lat="42.87904" lon="0.86283">
        <ele>1748</ele>
        <time>2022-01-23T11:27:28Z</time>
      </trkpt>
      <trkpt lat="42.87896" lon="0.86275">
        <ele>1748</ele>
        <time>2022-01-23T11:27:58Z</time>
      </trkpt>
      <trkpt lat="42.87894" lon="0.86263">
        <ele>1748</ele>
        <time>2022-01-23T11:28:20Z</time>
      </trkpt>
      <trkpt lat="42.87885" lon="0.86259">
        <ele>1748</ele>
        <time>2022-01-23T11:28:40Z</time>
      </trkpt>
      <trkpt lat="42.87876" lon="0.86256">
        <ele>1748</ele>
        <time>2022-01-23T11:29:20Z</time>
      </trkpt>
      <trkpt lat="42.87874" lon="0.86244">
        <ele>1783</ele>
        <time>2022-01-23T11:31:07Z</time>
      </trkpt>
      <trkpt lat="42.87865" lon="0.8624">
        <ele>1783</ele>
        <time>2022-01-23T11:31:24Z</time>
      </trkpt>
      <trkpt lat="42.87857" lon="0.86247">
        <ele>1783</ele>
        <time>2022-01-23T11:31:50Z</time>
      </trkpt>
      <trkpt lat="42.87852" lon="0.86236">
        <ele>1783</ele>
        <time>2022-01-23T11:32:13Z</time>
      </trkpt>
      <trkpt lat="42.87845" lon="0.86228">
        <ele>1783</ele>
        <time>2022-01-23T11:32:28Z</time>
      </trkpt>
      <trkpt lat="42.87836" lon="0.86234">
        <ele>1783</ele>
        <time>2022-01-23T11:32:52Z</time>
      </trkpt>
      <trkpt lat="42.87828" lon="0.86229">
        <ele>1783</ele>
        <time>2022-01-23T11:33:15Z</time>
      </trkpt>
      <trkpt lat="42.87818" lon="0.86225">
        <ele>1783</ele>
        <time>2022-01-23T11:33:34Z</time>
      </trkpt>
      <trkpt lat="42.87817" lon="0.86212">
        <ele>1783</ele>
        <time>2022-01-23T11:35:19Z</time>
      </trkpt>
      <trkpt lat="42.87808" lon="0.86212">
        <ele>1783</ele>
        <time>2022-01-23T11:38:06Z</time>
      </trkpt>
      <trkpt lat="42.87801" lon="0.86205">
        <ele>1783</ele>
        <time>2022-01-23T11:38:33Z</time>
      </trkpt>
      <trkpt lat="42.87793" lon="0.86198">
        <ele>1783</ele>
        <time>2022-01-23T11:38:51Z</time>
      </trkpt>
      <trkpt lat="42.87784" lon="0.86194">
        <ele>1783</ele>
        <time>2022-01-23T11:39:15Z</time>
      </trkpt>
      <trkpt lat="42.87777" lon="0.86186">
        <ele>1783</ele>
        <time>2022-01-23T11:39:49Z</time>
      </trkpt>
      <trkpt lat="42.87772" lon="0.86176">
        <ele>1783</ele>
        <time>2022-01-23T11:40:06Z</time>
      </trkpt>
      <trkpt lat="42.87763" lon="0.86172">
        <ele>1783</ele>
        <time>2022-01-23T11:40:26Z</time>
      </trkpt>
      <trkpt lat="42.87754" lon="0.86167">
        <ele>1783</ele>
        <time>2022-01-23T11:41:02Z</time>
      </trkpt>
      <trkpt lat="42.87745" lon="0.86169">
        <ele>1783</ele>
        <time>2022-01-23T11:41:29Z</time>
      </trkpt>
      <trkpt lat="42.8774" lon="0.8618">
        <ele>1783</ele>
        <time>2022-01-23T11:41:58Z</time>
      </trkpt>
      <trkpt lat="42.87731" lon="0.86181">
        <ele>1783</ele>
        <time>2022-01-23T11:42:31Z</time>
      </trkpt>
      <trkpt lat="42.87723" lon="0.86175">
        <ele>1783</ele>
        <time>2022-01-23T11:42:58Z</time>
      </trkpt>
      <trkpt lat="42.87715" lon="0.8617">
        <ele>1783</ele>
        <time>2022-01-23T11:43:24Z</time>
      </trkpt>
      <trkpt lat="42.87708" lon="0.86161">
        <ele>1783</ele>
        <time>2022-01-23T11:43:51Z</time>
      </trkpt>
      <trkpt lat="42.87702" lon="0.86152">
        <ele>1783</ele>
        <time>2022-01-23T11:44:15Z</time>
      </trkpt>
      <trkpt lat="42.87695" lon="0.86144">
        <ele>1783</ele>
        <time>2022-01-23T11:44:31Z</time>
      </trkpt>
      <trkpt lat="42.87689" lon="0.86135">
        <ele>1783</ele>
        <time>2022-01-23T11:44:55Z</time>
      </trkpt>
      <trkpt lat="42.8768" lon="0.86134">
        <ele>1783</ele>
        <time>2022-01-23T11:45:21Z</time>
      </trkpt>
      <trkpt lat="42.87674" lon="0.86124">
        <ele>1783</ele>
        <time>2022-01-23T11:45:49Z</time>
      </trkpt>
      <trkpt lat="42.87669" lon="0.86113">
        <ele>1783</ele>
        <time>2022-01-23T11:46:02Z</time>
      </trkpt>
      <trkpt lat="42.87662" lon="0.86121">
        <ele>1783</ele>
        <time>2022-01-23T11:46:16Z</time>
      </trkpt>
      <trkpt lat="42.87657" lon="0.8611">
        <ele>1783</ele>
        <time>2022-01-23T11:46:43Z</time>
      </trkpt>
      <trkpt lat="42.87648" lon="0.86111">
        <ele>1783</ele>
        <time>2022-01-23T11:47:20Z</time>
      </trkpt>
      <trkpt lat="42.87642" lon="0.86102">
        <ele>1783</ele>
        <time>2022-01-23T11:53:26Z</time>
      </trkpt>
      <trkpt lat="42.87634" lon="0.86096">
        <ele>1783</ele>
        <time>2022-01-23T11:53:49Z</time>
      </trkpt>
      <trkpt lat="42.87626" lon="0.86089">
        <ele>1925</ele>
        <time>2022-01-23T11:54:08Z</time>
      </trkpt>
      <trkpt lat="42.87618" lon="0.86083">
        <ele>1925</ele>
        <time>2022-01-23T11:54:33Z</time>
      </trkpt>
      <trkpt lat="42.8761" lon="0.86079">
        <ele>1925</ele>
        <time>2022-01-23T11:54:49Z</time>
      </trkpt>
      <trkpt lat="42.87604" lon="0.86069">
        <ele>1925</ele>
        <time>2022-01-23T11:55:10Z</time>
      </trkpt>
      <trkpt lat="42.87598" lon="0.86059">
        <ele>1925</ele>
        <time>2022-01-23T11:55:33Z</time>
      </trkpt>
      <trkpt lat="42.87593" lon="0.86048">
        <ele>1925</ele>
        <time>2022-01-23T11:55:48Z</time>
      </trkpt>
      <trkpt lat="42.87588" lon="0.86038">
        <ele>1925</ele>
        <time>2022-01-23T11:56:10Z</time>
      </trkpt>
      <trkpt lat="42.87579" lon="0.86037">
        <ele>1925</ele>
        <time>2022-01-23T11:56:31Z</time>
      </trkpt>
      <trkpt lat="42.8757" lon="0.86034">
        <ele>1925</ele>
        <time>2022-01-23T11:56:51Z</time>
      </trkpt>
      <trkpt lat="42.87562" lon="0.86027">
        <ele>1925</ele>
        <time>2022-01-23T11:57:10Z</time>
      </trkpt>
      <trkpt lat="42.87554" lon="0.86023">
        <ele>1925</ele>
        <time>2022-01-23T11:57:36Z</time>
      </trkpt>
      <trkpt lat="42.87551" lon="0.86011">
        <ele>1925</ele>
        <time>2022-01-23T11:57:59Z</time>
      </trkpt>
      <trkpt lat="42.87545" lon="0.86001">
        <ele>1925</ele>
        <time>2022-01-23T11:58:25Z</time>
      </trkpt>
      <trkpt lat="42.87538" lon="0.85992">
        <ele>1925</ele>
        <time>2022-01-23T11:58:45Z</time>
      </trkpt>
      <trkpt lat="42.87529" lon="0.85991">
        <ele>1925</ele>
        <time>2022-01-23T11:59:15Z</time>
      </trkpt>
      <trkpt lat="42.8752" lon="0.85994">
        <ele>1925</ele>
        <time>2022-01-23T11:59:41Z</time>
      </trkpt>
      <trkpt lat="42.87511" lon="0.85993">
        <ele>1925</ele>
        <time>2022-01-23T12:00:16Z</time>
      </trkpt>
      <trkpt lat="42.87503" lon="0.85998">
        <ele>1925</ele>
        <time>2022-01-23T12:00:56Z</time>
      </trkpt>
      <trkpt lat="42.87494" lon="0.85996">
        <ele>1925</ele>
        <time>2022-01-23T12:01:24Z</time>
      </trkpt>
      <trkpt lat="42.87484" lon="0.86">
        <ele>1995</ele>
        <time>2022-01-23T12:01:47Z</time>
      </trkpt>
      <trkpt lat="42.87477" lon="0.85992">
        <ele>1995</ele>
        <time>2022-01-23T12:02:04Z</time>
      </trkpt>
      <trkpt lat="42.87467" lon="0.85989">
        <ele>1995</ele>
        <time>2022-01-23T12:02:28Z</time>
      </trkpt>
      <trkpt lat="42.87459" lon="0.85985">
        <ele>1995</ele>
        <time>2022-01-23T12:02:46Z</time>
      </trkpt>
      <trkpt lat="42.8745" lon="0.85982">
        <ele>1995</ele>
        <time>2022-01-23T12:03:04Z</time>
      </trkpt>
      <trkpt lat="42.87442" lon="0.85989">
        <ele>1995</ele>
        <time>2022-01-23T12:20:54Z</time>
      </trkpt>
      <trkpt lat="42.87433" lon="0.85989">
        <ele>1995</ele>
        <time>2022-01-23T12:21:09Z</time>
      </trkpt>
      <trkpt lat="42.87425" lon="0.85982">
        <ele>1995</ele>
        <time>2022-01-23T12:21:25Z</time>
      </trkpt>
      <trkpt lat="42.87416" lon="0.85984">
        <ele>1995</ele>
        <time>2022-01-23T12:21:54Z</time>
      </trkpt>
      <trkpt lat="42.87407" lon="0.85988">
        <ele>1995</ele>
        <time>2022-01-23T12:22:18Z</time>
      </trkpt>
      <trkpt lat="42.87404" lon="0.85975">
        <ele>1995</ele>
        <time>2022-01-23T12:22:48Z</time>
      </trkpt>
      <trkpt lat="42.87395" lon="0.85974">
        <ele>1995</ele>
        <time>2022-01-23T12:23:11Z</time>
      </trkpt>
      <trkpt lat="42.87386" lon="0.85978">
        <ele>2042</ele>
        <time>2022-01-23T12:23:37Z</time>
      </trkpt>
      <trkpt lat="42.87381" lon="0.85968">
        <ele>2042</ele>
        <time>2022-01-23T12:24:02Z</time>
      </trkpt>
      <trkpt lat="42.87373" lon="0.85972">
        <ele>2042</ele>
        <time>2022-01-23T12:24:26Z</time>
      </trkpt>
      <trkpt lat="42.87366" lon="0.8598">
        <ele>2042</ele>
        <time>2022-01-23T12:24:44Z</time>
      </trkpt>
      <trkpt lat="42.87356" lon="0.85981">
        <ele>2042</ele>
        <time>2022-01-23T12:25:09Z</time>
      </trkpt>
      <trkpt lat="42.87347" lon="0.85982">
        <ele>2063</ele>
        <time>2022-01-23T12:25:48Z</time>
      </trkpt>
      <trkpt lat="42.87338" lon="0.85985">
        <ele>2063</ele>
        <time>2022-01-23T12:26:12Z</time>
      </trkpt>
      <trkpt lat="42.87329" lon="0.85986">
        <ele>2063</ele>
        <time>2022-01-23T12:26:34Z</time>
      </trkpt>
      <trkpt lat="42.8732" lon="0.8599">
        <ele>2063</ele>
        <time>2022-01-23T12:26:53Z</time>
      </trkpt>
      <trkpt lat="42.8731" lon="0.85988">
        <ele>2063</ele>
        <time>2022-01-23T12:27:20Z</time>
      </trkpt>
      <trkpt lat="42.87302" lon="0.85994">
        <ele>2063</ele>
        <time>2022-01-23T12:31:50Z</time>
      </trkpt>
      <trkpt lat="42.87293" lon="0.85992">
        <ele>2063</ele>
        <time>2022-01-23T12:32:52Z</time>
      </trkpt>
      <trkpt lat="42.87284" lon="0.85991">
        <ele>2063</ele>
        <time>2022-01-23T12:33:50Z</time>
      </trkpt>
      <trkpt lat="42.87275" lon="0.85992">
        <ele>2063</ele>
        <time>2022-01-23T12:34:09Z</time>
      </trkpt>
      <trkpt lat="42.87266" lon="0.85991">
        <ele>2063</ele>
        <time>2022-01-23T12:34:35Z</time>
      </trkpt>
      <trkpt lat="42.87257" lon="0.85992">
        <ele>2063</ele>
        <time>2022-01-23T12:34:59Z</time>
      </trkpt>
      <trkpt lat="42.87248" lon="0.85996">
        <ele>2063</ele>
        <time>2022-01-23T12:35:22Z</time>
      </trkpt>
      <trkpt lat="42.87239" lon="0.85999">
        <ele>2063</ele>
        <time>2022-01-23T12:35:38Z</time>
      </trkpt>
      <trkpt lat="42.8723" lon="0.86001">
        <ele>2063</ele>
        <time>2022-01-23T12:35:54Z</time>
      </trkpt>
      <trkpt lat="42.87222" lon="0.85994">
        <ele>2063</ele>
        <time>2022-01-23T12:36:28Z</time>
      </trkpt>
      <trkpt lat="42.87216" lon="0.85984">
        <ele>2063</ele>
        <time>2022-01-23T12:36:44Z</time>
      </trkpt>
      <trkpt lat="42.87224" lon="0.85989">
        <ele>2063</ele>
        <time>2022-01-23T12:41:16Z</time>
      </trkpt>
      <trkpt lat="42.87216" lon="0.85985">
        <ele>2063</ele>
        <time>2022-01-23T12:42:15Z</time>
      </trkpt>
      <trkpt lat="42.87207" lon="0.85987">
        <ele>2063</ele>
        <time>2022-01-23T12:48:25Z</time>
      </trkpt>
      <trkpt lat="42.872" lon="0.85996">
        <ele>2063</ele>
        <time>2022-01-23T12:48:49Z</time>
      </trkpt>
      <trkpt lat="42.87193" lon="0.85988">
        <ele>2063</ele>
        <time>2022-01-23T12:49:20Z</time>
      </trkpt>
      <trkpt lat="42.87185" lon="0.85995">
        <ele>2063</ele>
        <time>2022-01-23T12:49:40Z</time>
      </trkpt>
      <trkpt lat="42.87176" lon="0.85999">
        <ele>2063</ele>
        <time>2022-01-23T12:50:04Z</time>
      </trkpt>
      <trkpt lat="42.87167" lon="0.85999">
        <ele>2063</ele>
        <time>2022-01-23T12:50:34Z</time>
      </trkpt>
      <trkpt lat="42.87159" lon="0.85995">
        <ele>2063</ele>
        <time>2022-01-23T12:50:55Z</time>
      </trkpt>
      <trkpt lat="42.8715" lon="0.8599">
        <ele>2063</ele>
        <time>2022-01-23T12:51:26Z</time>
      </trkpt>
      <trkpt lat="42.87141" lon="0.85984">
        <ele>2063</ele>
        <time>2022-01-23T12:51:45Z</time>
      </trkpt>
      <trkpt lat="42.87132" lon="0.85985">
        <ele>2063</ele>
        <time>2022-01-23T12:52:18Z</time>
      </trkpt>
      <trkpt lat="42.87127" lon="0.85975">
        <ele>2063</ele>
        <time>2022-01-23T12:52:48Z</time>
      </trkpt>
      <trkpt lat="42.87119" lon="0.85981">
        <ele>2063</ele>
        <time>2022-01-23T12:54:11Z</time>
      </trkpt>
      <trkpt lat="42.8711" lon="0.85984">
        <ele>2063</ele>
        <time>2022-01-23T12:55:08Z</time>
      </trkpt>
      <trkpt lat="42.87103" lon="0.85991">
        <ele>2063</ele>
        <time>2022-01-23T12:55:33Z</time>
      </trkpt>
      <trkpt lat="42.87094" lon="0.85988">
        <ele>2063</ele>
        <time>2022-01-23T12:56:09Z</time>
      </trkpt>
      <trkpt lat="42.87085" lon="0.85988">
        <ele>2063</ele>
        <time>2022-01-23T12:57:04Z</time>
      </trkpt>
      <trkpt lat="42.87077" lon="0.85982">
        <ele>2063</ele>
        <time>2022-01-23T12:57:59Z</time>
      </trkpt>
      <trkpt lat="42.8707" lon="0.85973">
        <ele>2063</ele>
        <time>2022-01-23T12:58:31Z</time>
      </trkpt>
      <trkpt lat="42.87061" lon="0.85972">
        <ele>2063</ele>
        <time>2022-01-23T12:59:00Z</time>
      </trkpt>
      <trkpt lat="42.87058" lon="0.85983">
        <ele>2063</ele>
        <time>2022-01-23T13:00:08Z</time>
      </trkpt>
      <trkpt lat="42.87049" lon="0.85983">
        <ele>2063</ele>
        <time>2022-01-23T13:00:37Z</time>
      </trkpt>
      <trkpt lat="42.8704" lon="0.85984">
        <ele>2063</ele>
        <time>2022-01-23T13:01:00Z</time>
      </trkpt>
      <trkpt lat="42.87031" lon="0.85984">
        <ele>2063</ele>
        <time>2022-01-23T13:01:29Z</time>
      </trkpt>
      <trkpt lat="42.87022" lon="0.85982">
        <ele>2063</ele>
        <time>2022-01-23T13:02:36Z</time>
      </trkpt>
      <trkpt lat="42.87012" lon="0.8598">
        <ele>2063</ele>
        <time>2022-01-23T13:02:55Z</time>
      </trkpt>
      <trkpt lat="42.87005" lon="0.85973">
        <ele>2063</ele>
        <time>2022-01-23T13:03:23Z</time>
      </trkpt>
      <trkpt lat="42.86995" lon="0.85971">
        <ele>2063</ele>
        <time>2022-01-23T13:03:39Z</time>
      </trkpt>
      <trkpt lat="42.86987" lon="0.85965">
        <ele>2063</ele>
        <time>2022-01-23T13:03:53Z</time>
      </trkpt>
      <trkpt lat="42.86978" lon="0.8596">
        <ele>2063</ele>
        <time>2022-01-23T13:04:14Z</time>
      </trkpt>
      <trkpt lat="42.8697" lon="0.85955">
        <ele>2063</ele>
        <time>2022-01-23T13:04:40Z</time>
      </trkpt>
      <trkpt lat="42.86963" lon="0.85946">
        <ele>2063</ele>
        <time>2022-01-23T13:05:06Z</time>
      </trkpt>
      <trkpt lat="42.86966" lon="0.85942">
        <ele>2239</ele>
        <time>2022-01-23T13:06:10Z</time>
      </trkpt>
      <trkpt lat="42.86966" lon="0.85941">
        <ele>2244</ele>
        <time>2022-01-23T13:33:33Z</time>
      </trkpt>
      <trkpt lat="42.86964" lon="0.85934">
        <ele>2244</ele>
        <time>2022-01-23T13:34:11Z</time>
      </trkpt>
      <trkpt lat="42.86962" lon="0.85921">
        <ele>2244</ele>
        <time>2022-01-23T13:35:06Z</time>
      </trkpt>
      <trkpt lat="42.86958" lon="0.8591">
        <ele>2244</ele>
        <time>2022-01-23T13:35:21Z</time>
      </trkpt>
      <trkpt lat="42.86952" lon="0.859">
        <ele>2244</ele>
        <time>2022-01-23T13:35:33Z</time>
      </trkpt>
      <trkpt lat="42.86954" lon="0.85888">
        <ele>2244</ele>
        <time>2022-01-23T13:35:49Z</time>
      </trkpt>
      <trkpt lat="42.86963" lon="0.85885">
        <ele>2244</ele>
        <time>2022-01-23T13:36:34Z</time>
      </trkpt>
      <trkpt lat="42.86965" lon="0.85873">
        <ele>2244</ele>
        <time>2022-01-23T13:37:09Z</time>
      </trkpt>
      <trkpt lat="42.86959" lon="0.85864">
        <ele>2244</ele>
        <time>2022-01-23T13:37:36Z</time>
      </trkpt>
      <trkpt lat="42.86953" lon="0.85854">
        <ele>2244</ele>
        <time>2022-01-23T13:37:55Z</time>
      </trkpt>
      <trkpt lat="42.86951" lon="0.85841">
        <ele>2244</ele>
        <time>2022-01-23T13:38:27Z</time>
      </trkpt>
      <trkpt lat="42.86949" lon="0.85828">
        <ele>2244</ele>
        <time>2022-01-23T13:38:37Z</time>
      </trkpt>
      <trkpt lat="42.86947" lon="0.85815">
        <ele>2244</ele>
        <time>2022-01-23T13:38:53Z</time>
      </trkpt>
      <trkpt lat="42.86945" lon="0.85803">
        <ele>2244</ele>
        <time>2022-01-23T13:39:06Z</time>
      </trkpt>
      <trkpt lat="42.8694" lon="0.85792">
        <ele>2244</ele>
        <time>2022-01-23T13:39:18Z</time>
      </trkpt>
      <trkpt lat="42.86933" lon="0.858">
        <ele>2244</ele>
        <time>2022-01-23T13:40:11Z</time>
      </trkpt>
      <trkpt lat="42.8693" lon="0.85811">
        <ele>2244</ele>
        <time>2022-01-23T13:40:25Z</time>
      </trkpt>
      <trkpt lat="42.86925" lon="0.85822">
        <ele>2244</ele>
        <time>2022-01-23T13:40:41Z</time>
      </trkpt>
      <trkpt lat="42.86919" lon="0.85832">
        <ele>2244</ele>
        <time>2022-01-23T13:40:56Z</time>
      </trkpt>
      <trkpt lat="42.86914" lon="0.85842">
        <ele>2244</ele>
        <time>2022-01-23T13:41:14Z</time>
      </trkpt>
      <trkpt lat="42.86911" lon="0.85854">
        <ele>2244</ele>
        <time>2022-01-23T13:41:28Z</time>
      </trkpt>
      <trkpt lat="42.86909" lon="0.85867">
        <ele>2244</ele>
        <time>2022-01-23T13:41:38Z</time>
      </trkpt>
      <trkpt lat="42.86908" lon="0.8588">
        <ele>2244</ele>
        <time>2022-01-23T13:41:54Z</time>
      </trkpt>
      <trkpt lat="42.86906" lon="0.85892">
        <ele>2244</ele>
        <time>2022-01-23T13:42:09Z</time>
      </trkpt>
      <trkpt lat="42.86904" lon="0.85904">
        <ele>2244</ele>
        <time>2022-01-23T13:42:41Z</time>
      </trkpt>
      <trkpt lat="42.86902" lon="0.85916">
        <ele>2244</ele>
        <time>2022-01-23T13:42:53Z</time>
      </trkpt>
      <trkpt lat="42.869" lon="0.85929">
        <ele>2244</ele>
        <time>2022-01-23T13:43:16Z</time>
      </trkpt>
      <trkpt lat="42.86898" lon="0.85941">
        <ele>2244</ele>
        <time>2022-01-23T13:43:30Z</time>
      </trkpt>
      <trkpt lat="42.86898" lon="0.85953">
        <ele>2244</ele>
        <time>2022-01-23T13:44:48Z</time>
      </trkpt>
      <trkpt lat="42.86892" lon="0.85963">
        <ele>2244</ele>
        <time>2022-01-23T13:45:34Z</time>
      </trkpt>
      <trkpt lat="42.86893" lon="0.85976">
        <ele>2244</ele>
        <time>2022-01-23T13:46:14Z</time>
      </trkpt>
      <trkpt lat="42.86889" lon="0.85987">
        <ele>2244</ele>
        <time>2022-01-23T13:46:40Z</time>
      </trkpt>
      <trkpt lat="42.86887" lon="0.86">
        <ele>2244</ele>
        <time>2022-01-23T13:47:05Z</time>
      </trkpt>
      <trkpt lat="42.86885" lon="0.86012">
        <ele>2244</ele>
        <time>2022-01-23T13:47:25Z</time>
      </trkpt>
      <trkpt lat="42.86881" lon="0.86023">
        <ele>2244</ele>
        <time>2022-01-23T13:47:47Z</time>
      </trkpt>
      <trkpt lat="42.86877" lon="0.86035">
        <ele>2244</ele>
        <time>2022-01-23T13:48:07Z</time>
      </trkpt>
      <trkpt lat="42.86877" lon="0.86048">
        <ele>2244</ele>
        <time>2022-01-23T13:48:23Z</time>
      </trkpt>
      <trkpt lat="42.86872" lon="0.86058">
        <ele>2244</ele>
        <time>2022-01-23T13:48:47Z</time>
      </trkpt>
      <trkpt lat="42.86867" lon="0.8607">
        <ele>2244</ele>
        <time>2022-01-23T13:48:58Z</time>
      </trkpt>
      <trkpt lat="42.86862" lon="0.86082">
        <ele>2244</ele>
        <time>2022-01-23T13:49:14Z</time>
      </trkpt>
      <trkpt lat="42.86857" lon="0.86093">
        <ele>2244</ele>
        <time>2022-01-23T13:49:26Z</time>
      </trkpt>
      <trkpt lat="42.86852" lon="0.86104">
        <ele>2244</ele>
        <time>2022-01-23T13:49:39Z</time>
      </trkpt>
      <trkpt lat="42.86846" lon="0.86114">
        <ele>2244</ele>
        <time>2022-01-23T13:49:51Z</time>
      </trkpt>
      <trkpt lat="42.8684" lon="0.86125">
        <ele>2244</ele>
        <time>2022-01-23T13:50:04Z</time>
      </trkpt>
      <trkpt lat="42.86834" lon="0.86135">
        <ele>2244</ele>
        <time>2022-01-23T13:50:18Z</time>
      </trkpt>
      <trkpt lat="42.86828" lon="0.86145">
        <ele>2244</ele>
        <time>2022-01-23T13:50:28Z</time>
      </trkpt>
      <trkpt lat="42.86824" lon="0.86156">
        <ele>2244</ele>
        <time>2022-01-23T13:50:38Z</time>
      </trkpt>
      <trkpt lat="42.86819" lon="0.86168">
        <ele>2244</ele>
        <time>2022-01-23T13:50:48Z</time>
      </trkpt>
      <trkpt lat="42.86816" lon="0.8618">
        <ele>2244</ele>
        <time>2022-01-23T13:50:55Z</time>
      </trkpt>
      <trkpt lat="42.8681" lon="0.86192">
        <ele>2244</ele>
        <time>2022-01-23T13:51:07Z</time>
      </trkpt>
      <trkpt lat="42.86808" lon="0.86204">
        <ele>2244</ele>
        <time>2022-01-23T13:51:16Z</time>
      </trkpt>
      <trkpt lat="42.86802" lon="0.86215">
        <ele>2244</ele>
        <time>2022-01-23T13:51:30Z</time>
      </trkpt>
      <trkpt lat="42.86797" lon="0.86226">
        <ele>2244</ele>
        <time>2022-01-23T13:51:38Z</time>
      </trkpt>
      <trkpt lat="42.86795" lon="0.86239">
        <ele>2244</ele>
        <time>2022-01-23T13:51:49Z</time>
      </trkpt>
      <trkpt lat="42.86794" lon="0.86252">
        <ele>2244</ele>
        <time>2022-01-23T13:52:00Z</time>
      </trkpt>
      <trkpt lat="42.86791" lon="0.86265">
        <ele>2244</ele>
        <time>2022-01-23T13:52:11Z</time>
      </trkpt>
      <trkpt lat="42.86792" lon="0.86278">
        <ele>2097</ele>
        <time>2022-01-23T13:52:22Z</time>
      </trkpt>
      <trkpt lat="42.8679" lon="0.86291">
        <ele>2097</ele>
        <time>2022-01-23T13:52:33Z</time>
      </trkpt>
      <trkpt lat="42.86788" lon="0.86303">
        <ele>2097</ele>
        <time>2022-01-23T13:52:46Z</time>
      </trkpt>
      <trkpt lat="42.86786" lon="0.86316">
        <ele>2097</ele>
        <time>2022-01-23T13:53:05Z</time>
      </trkpt>
      <trkpt lat="42.86783" lon="0.86328">
        <ele>2097</ele>
        <time>2022-01-23T13:53:15Z</time>
      </trkpt>
      <trkpt lat="42.86779" lon="0.86339">
        <ele>2097</ele>
        <time>2022-01-23T13:53:24Z</time>
      </trkpt>
      <trkpt lat="42.86777" lon="0.86352">
        <ele>2097</ele>
        <time>2022-01-23T13:53:33Z</time>
      </trkpt>
      <trkpt lat="42.86776" lon="0.86364">
        <ele>2097</ele>
        <time>2022-01-23T13:53:42Z</time>
      </trkpt>
      <trkpt lat="42.86774" lon="0.86376">
        <ele>2097</ele>
        <time>2022-01-23T13:55:25Z</time>
      </trkpt>
      <trkpt lat="42.86772" lon="0.86388">
        <ele>2097</ele>
        <time>2022-01-23T13:55:36Z</time>
      </trkpt>
      <trkpt lat="42.86769" lon="0.864">
        <ele>2097</ele>
        <time>2022-01-23T13:55:48Z</time>
      </trkpt>
      <trkpt lat="42.86767" lon="0.86413">
        <ele>2097</ele>
        <time>2022-01-23T13:55:56Z</time>
      </trkpt>
      <trkpt lat="42.86766" lon="0.86427">
        <ele>2097</ele>
        <time>2022-01-23T13:56:05Z</time>
      </trkpt>
      <trkpt lat="42.86767" lon="0.86439">
        <ele>2097</ele>
        <time>2022-01-23T13:56:14Z</time>
      </trkpt>
      <trkpt lat="42.86765" lon="0.86452">
        <ele>2097</ele>
        <time>2022-01-23T13:56:24Z</time>
      </trkpt>
      <trkpt lat="42.86764" lon="0.86465">
        <ele>2097</ele>
        <time>2022-01-23T13:56:35Z</time>
      </trkpt>
      <trkpt lat="42.86762" lon="0.86477">
        <ele>2097</ele>
        <time>2022-01-23T13:56:47Z</time>
      </trkpt>
      <trkpt lat="42.8676" lon="0.86489">
        <ele>2097</ele>
        <time>2022-01-23T13:57:00Z</time>
      </trkpt>
      <trkpt lat="42.86763" lon="0.86501">
        <ele>2097</ele>
        <time>2022-01-23T13:57:09Z</time>
      </trkpt>
      <trkpt lat="42.86764" lon="0.86515">
        <ele>2097</ele>
        <time>2022-01-23T13:57:20Z</time>
      </trkpt>
      <trkpt lat="42.86763" lon="0.86527">
        <ele>2097</ele>
        <time>2022-01-23T13:57:30Z</time>
      </trkpt>
      <trkpt lat="42.86762" lon="0.8654">
        <ele>2097</ele>
        <time>2022-01-23T13:57:47Z</time>
      </trkpt>
      <trkpt lat="42.86763" lon="0.86553">
        <ele>2097</ele>
        <time>2022-01-23T13:58:00Z</time>
      </trkpt>
      <trkpt lat="42.86763" lon="0.86566">
        <ele>2097</ele>
        <time>2022-01-23T13:58:11Z</time>
      </trkpt>
      <trkpt lat="42.86762" lon="0.86578">
        <ele>2097</ele>
        <time>2022-01-23T13:58:23Z</time>
      </trkpt>
      <trkpt lat="42.8676" lon="0.86591">
        <ele>2097</ele>
        <time>2022-01-23T13:58:36Z</time>
      </trkpt>
      <trkpt lat="42.86758" lon="0.86604">
        <ele>2097</ele>
        <time>2022-01-23T13:58:51Z</time>
      </trkpt>
      <trkpt lat="42.86757" lon="0.86617">
        <ele>2097</ele>
        <time>2022-01-23T13:59:05Z</time>
      </trkpt>
      <trkpt lat="42.86756" lon="0.8663">
        <ele>2097</ele>
        <time>2022-01-23T13:59:18Z</time>
      </trkpt>
      <trkpt lat="42.86754" lon="0.86642">
        <ele>2097</ele>
        <time>2022-01-23T13:59:31Z</time>
      </trkpt>
      <trkpt lat="42.86755" lon="0.86654">
        <ele>2097</ele>
        <time>2022-01-23T13:59:44Z</time>
      </trkpt>
      <trkpt lat="42.86757" lon="0.86668">
        <ele>2097</ele>
        <time>2022-01-23T13:59:56Z</time>
      </trkpt>
      <trkpt lat="42.86758" lon="0.86681">
        <ele>2097</ele>
        <time>2022-01-23T14:00:07Z</time>
      </trkpt>
      <trkpt lat="42.86761" lon="0.86694">
        <ele>2094</ele>
        <time>2022-01-23T14:00:22Z</time>
      </trkpt>
      <trkpt lat="42.86763" lon="0.86707">
        <ele>2093</ele>
        <time>2022-01-23T14:00:32Z</time>
      </trkpt>
      <trkpt lat="42.86764" lon="0.8672">
        <ele>2093</ele>
        <time>2022-01-23T14:01:09Z</time>
      </trkpt>
      <trkpt lat="42.86767" lon="0.86733">
        <ele>2093</ele>
        <time>2022-01-23T14:02:45Z</time>
      </trkpt>
      <trkpt lat="42.86768" lon="0.86746">
        <ele>2093</ele>
        <time>2022-01-23T14:02:55Z</time>
      </trkpt>
      <trkpt lat="42.8677" lon="0.86759">
        <ele>2093</ele>
        <time>2022-01-23T14:03:26Z</time>
      </trkpt>
      <trkpt lat="42.8677" lon="0.86771">
        <ele>2093</ele>
        <time>2022-01-23T14:03:36Z</time>
      </trkpt>
      <trkpt lat="42.86766" lon="0.86783">
        <ele>2093</ele>
        <time>2022-01-23T14:03:50Z</time>
      </trkpt>
      <trkpt lat="42.86765" lon="0.86795">
        <ele>2093</ele>
        <time>2022-01-23T14:03:59Z</time>
      </trkpt>
      <trkpt lat="42.86765" lon="0.86807">
        <ele>2093</ele>
        <time>2022-01-23T14:04:08Z</time>
      </trkpt>
      <trkpt lat="42.86764" lon="0.8682">
        <ele>2093</ele>
        <time>2022-01-23T14:04:20Z</time>
      </trkpt>
      <trkpt lat="42.86761" lon="0.86833">
        <ele>2093</ele>
        <time>2022-01-23T14:04:30Z</time>
      </trkpt>
      <trkpt lat="42.86759" lon="0.86845">
        <ele>2093</ele>
        <time>2022-01-23T14:04:40Z</time>
      </trkpt>
      <trkpt lat="42.86757" lon="0.86857">
        <ele>2093</ele>
        <time>2022-01-23T14:04:48Z</time>
      </trkpt>
      <trkpt lat="42.86754" lon="0.8687">
        <ele>2093</ele>
        <time>2022-01-23T14:04:57Z</time>
      </trkpt>
      <trkpt lat="42.86752" lon="0.86882">
        <ele>2093</ele>
        <time>2022-01-23T14:05:07Z</time>
      </trkpt>
      <trkpt lat="42.8675" lon="0.86894">
        <ele>2093</ele>
        <time>2022-01-23T14:05:17Z</time>
      </trkpt>
      <trkpt lat="42.86747" lon="0.86906">
        <ele>2093</ele>
        <time>2022-01-23T14:05:26Z</time>
      </trkpt>
      <trkpt lat="42.86745" lon="0.86919">
        <ele>2093</ele>
        <time>2022-01-23T14:05:37Z</time>
      </trkpt>
      <trkpt lat="42.86744" lon="0.86932">
        <ele>2093</ele>
        <time>2022-01-23T14:05:46Z</time>
      </trkpt>
      <trkpt lat="42.86743" lon="0.86945">
        <ele>2093</ele>
        <time>2022-01-23T14:05:55Z</time>
      </trkpt>
      <trkpt lat="42.86743" lon="0.86958">
        <ele>2093</ele>
        <time>2022-01-23T14:06:05Z</time>
      </trkpt>
      <trkpt lat="42.86741" lon="0.86971">
        <ele>2093</ele>
        <time>2022-01-23T14:06:20Z</time>
      </trkpt>
      <trkpt lat="42.86738" lon="0.86983">
        <ele>2093</ele>
        <time>2022-01-23T14:06:34Z</time>
      </trkpt>
      <trkpt lat="42.86736" lon="0.86996">
        <ele>2093</ele>
        <time>2022-01-23T14:06:45Z</time>
      </trkpt>
      <trkpt lat="42.86736" lon="0.87009">
        <ele>2093</ele>
        <time>2022-01-23T14:06:55Z</time>
      </trkpt>
      <trkpt lat="42.86735" lon="0.87021">
        <ele>2093</ele>
        <time>2022-01-23T14:07:06Z</time>
      </trkpt>
      <trkpt lat="42.86733" lon="0.87034">
        <ele>2093</ele>
        <time>2022-01-23T14:07:18Z</time>
      </trkpt>
      <trkpt lat="42.86731" lon="0.87046">
        <ele>2093</ele>
        <time>2022-01-23T14:07:28Z</time>
      </trkpt>
      <trkpt lat="42.86729" lon="0.87059">
        <ele>2093</ele>
        <time>2022-01-23T14:07:37Z</time>
      </trkpt>
      <trkpt lat="42.86728" lon="0.87072">
        <ele>2093</ele>
        <time>2022-01-23T14:07:46Z</time>
      </trkpt>
      <trkpt lat="42.86728" lon="0.87086">
        <ele>2093</ele>
        <time>2022-01-23T14:07:54Z</time>
      </trkpt>
      <trkpt lat="42.8673" lon="0.87098">
        <ele>2093</ele>
        <time>2022-01-23T14:08:05Z</time>
      </trkpt>
      <trkpt lat="42.86734" lon="0.87109">
        <ele>2093</ele>
        <time>2022-01-23T14:08:20Z</time>
      </trkpt>
      <trkpt lat="42.86737" lon="0.87122">
        <ele>2093</ele>
        <time>2022-01-23T14:08:32Z</time>
      </trkpt>
      <trkpt lat="42.86739" lon="0.87134">
        <ele>2093</ele>
        <time>2022-01-23T14:09:20Z</time>
      </trkpt>
      <trkpt lat="42.86739" lon="0.87147">
        <ele>2093</ele>
        <time>2022-01-23T14:10:49Z</time>
      </trkpt>
      <trkpt lat="42.86738" lon="0.8716">
        <ele>2093</ele>
        <time>2022-01-23T14:10:58Z</time>
      </trkpt>
      <trkpt lat="42.86738" lon="0.87173">
        <ele>2093</ele>
        <time>2022-01-23T14:11:07Z</time>
      </trkpt>
      <trkpt lat="42.86736" lon="0.87185">
        <ele>2093</ele>
        <time>2022-01-23T14:11:16Z</time>
      </trkpt>
      <trkpt lat="42.86734" lon="0.87199">
        <ele>2093</ele>
        <time>2022-01-23T14:11:25Z</time>
      </trkpt>
      <trkpt lat="42.86733" lon="0.87212">
        <ele>2093</ele>
        <time>2022-01-23T14:11:34Z</time>
      </trkpt>
      <trkpt lat="42.86734" lon="0.87225">
        <ele>2093</ele>
        <time>2022-01-23T14:11:43Z</time>
      </trkpt>
      <trkpt lat="42.86737" lon="0.87238">
        <ele>2093</ele>
        <time>2022-01-23T14:12:29Z</time>
      </trkpt>
      <trkpt lat="42.86735" lon="0.8725">
        <ele>2093</ele>
        <time>2022-01-23T14:12:40Z</time>
      </trkpt>
      <trkpt lat="42.86736" lon="0.87264">
        <ele>2093</ele>
        <time>2022-01-23T14:12:49Z</time>
      </trkpt>
      <trkpt lat="42.86735" lon="0.87278">
        <ele>2093</ele>
        <time>2022-01-23T14:12:58Z</time>
      </trkpt>
      <trkpt lat="42.86737" lon="0.87291">
        <ele>2093</ele>
        <time>2022-01-23T14:13:07Z</time>
      </trkpt>
      <trkpt lat="42.86737" lon="0.87305">
        <ele>2093</ele>
        <time>2022-01-23T14:13:16Z</time>
      </trkpt>
      <trkpt lat="42.8674" lon="0.87317">
        <ele>2093</ele>
        <time>2022-01-23T14:13:25Z</time>
      </trkpt>
      <trkpt lat="42.86741" lon="0.87329">
        <ele>2093</ele>
        <time>2022-01-23T14:13:34Z</time>
      </trkpt>
      <trkpt lat="42.86743" lon="0.87342">
        <ele>2093</ele>
        <time>2022-01-23T14:13:41Z</time>
      </trkpt>
      <trkpt lat="42.86743" lon="0.87354">
        <ele>2093</ele>
        <time>2022-01-23T14:13:50Z</time>
      </trkpt>
      <trkpt lat="42.8674" lon="0.87366">
        <ele>2093</ele>
        <time>2022-01-23T14:13:59Z</time>
      </trkpt>
      <trkpt lat="42.86741" lon="0.8738">
        <ele>2093</ele>
        <time>2022-01-23T14:14:09Z</time>
      </trkpt>
      <trkpt lat="42.86737" lon="0.87391">
        <ele>2093</ele>
        <time>2022-01-23T14:14:18Z</time>
      </trkpt>
      <trkpt lat="42.86736" lon="0.87404">
        <ele>2093</ele>
        <time>2022-01-23T14:14:27Z</time>
      </trkpt>
      <trkpt lat="42.86738" lon="0.87417">
        <ele>2093</ele>
        <time>2022-01-23T14:14:38Z</time>
      </trkpt>
      <trkpt lat="42.86737" lon="0.87429">
        <ele>2093</ele>
        <time>2022-01-23T14:14:46Z</time>
      </trkpt>
      <trkpt lat="42.86739" lon="0.87442">
        <ele>2093</ele>
        <time>2022-01-23T14:14:54Z</time>
      </trkpt>
      <trkpt lat="42.8674" lon="0.87455">
        <ele>2093</ele>
        <time>2022-01-23T14:15:05Z</time>
      </trkpt>
      <trkpt lat="42.86739" lon="0.87468">
        <ele>2076</ele>
        <time>2022-01-23T14:15:12Z</time>
      </trkpt>
      <trkpt lat="42.86739" lon="0.87481">
        <ele>2076</ele>
        <time>2022-01-23T14:15:20Z</time>
      </trkpt>
      <trkpt lat="42.86739" lon="0.87494">
        <ele>2070</ele>
        <time>2022-01-23T14:15:32Z</time>
      </trkpt>
      <trkpt lat="42.86739" lon="0.87506">
        <ele>2070</ele>
        <time>2022-01-23T14:15:41Z</time>
      </trkpt>
      <trkpt lat="42.86738" lon="0.8752">
        <ele>2070</ele>
        <time>2022-01-23T14:15:52Z</time>
      </trkpt>
      <trkpt lat="42.86737" lon="0.87533">
        <ele>2070</ele>
        <time>2022-01-23T14:16:02Z</time>
      </trkpt>
      <trkpt lat="42.86735" lon="0.87546">
        <ele>2070</ele>
        <time>2022-01-23T14:16:11Z</time>
      </trkpt>
      <trkpt lat="42.86731" lon="0.87558">
        <ele>2070</ele>
        <time>2022-01-23T14:16:23Z</time>
      </trkpt>
      <trkpt lat="42.86729" lon="0.87572">
        <ele>2070</ele>
        <time>2022-01-23T14:16:35Z</time>
      </trkpt>
      <trkpt lat="42.86726" lon="0.87584">
        <ele>2070</ele>
        <time>2022-01-23T14:16:46Z</time>
      </trkpt>
      <trkpt lat="42.86725" lon="0.87597">
        <ele>2070</ele>
        <time>2022-01-23T14:16:58Z</time>
      </trkpt>
      <trkpt lat="42.86723" lon="0.8761">
        <ele>2070</ele>
        <time>2022-01-23T14:17:08Z</time>
      </trkpt>
      <trkpt lat="42.86724" lon="0.87623">
        <ele>2070</ele>
        <time>2022-01-23T14:17:18Z</time>
      </trkpt>
      <trkpt lat="42.86725" lon="0.87636">
        <ele>2070</ele>
        <time>2022-01-23T14:17:27Z</time>
      </trkpt>
      <trkpt lat="42.86724" lon="0.87649">
        <ele>2070</ele>
        <time>2022-01-23T14:17:35Z</time>
      </trkpt>
      <trkpt lat="42.86723" lon="0.87662">
        <ele>2070</ele>
        <time>2022-01-23T14:17:44Z</time>
      </trkpt>
      <trkpt lat="42.86723" lon="0.87676">
        <ele>2070</ele>
        <time>2022-01-23T14:17:50Z</time>
      </trkpt>
      <trkpt lat="42.86724" lon="0.87688">
        <ele>2070</ele>
        <time>2022-01-23T14:17:57Z</time>
      </trkpt>
      <trkpt lat="42.86725" lon="0.87701">
        <ele>2070</ele>
        <time>2022-01-23T14:18:05Z</time>
      </trkpt>
      <trkpt lat="42.86727" lon="0.87713">
        <ele>2051</ele>
        <time>2022-01-23T14:18:13Z</time>
      </trkpt>
      <trkpt lat="42.86728" lon="0.87726">
        <ele>2050</ele>
        <time>2022-01-23T14:18:22Z</time>
      </trkpt>
      <trkpt lat="42.8673" lon="0.87739">
        <ele>2050</ele>
        <time>2022-01-23T14:18:31Z</time>
      </trkpt>
      <trkpt lat="42.86732" lon="0.87754">
        <ele>2050</ele>
        <time>2022-01-23T14:18:40Z</time>
      </trkpt>
      <trkpt lat="42.86733" lon="0.87767">
        <ele>2050</ele>
        <time>2022-01-23T14:18:48Z</time>
      </trkpt>
      <trkpt lat="42.86734" lon="0.87781">
        <ele>2050</ele>
        <time>2022-01-23T14:18:56Z</time>
      </trkpt>
      <trkpt lat="42.86735" lon="0.87793">
        <ele>2050</ele>
        <time>2022-01-23T14:19:04Z</time>
      </trkpt>
      <trkpt lat="42.86736" lon="0.87807">
        <ele>2050</ele>
        <time>2022-01-23T14:19:14Z</time>
      </trkpt>
      <trkpt lat="42.86737" lon="0.87821">
        <ele>2050</ele>
        <time>2022-01-23T14:19:23Z</time>
      </trkpt>
      <trkpt lat="42.86737" lon="0.87834">
        <ele>2050</ele>
        <time>2022-01-23T14:19:32Z</time>
      </trkpt>
      <trkpt lat="42.86738" lon="0.87847">
        <ele>2050</ele>
        <time>2022-01-23T14:19:41Z</time>
      </trkpt>
      <trkpt lat="42.86741" lon="0.8786">
        <ele>2050</ele>
        <time>2022-01-23T14:19:49Z</time>
      </trkpt>
      <trkpt lat="42.86744" lon="0.87873">
        <ele>2050</ele>
        <time>2022-01-23T14:19:57Z</time>
      </trkpt>
      <trkpt lat="42.86747" lon="0.87885">
        <ele>2050</ele>
        <time>2022-01-23T14:20:05Z</time>
      </trkpt>
      <trkpt lat="42.86748" lon="0.87898">
        <ele>2050</ele>
        <time>2022-01-23T14:20:13Z</time>
      </trkpt>
      <trkpt lat="42.8675" lon="0.8791">
        <ele>2050</ele>
        <time>2022-01-23T14:20:20Z</time>
      </trkpt>
      <trkpt lat="42.86751" lon="0.87923">
        <ele>2050</ele>
        <time>2022-01-23T14:20:29Z</time>
      </trkpt>
      <trkpt lat="42.86752" lon="0.87937">
        <ele>2050</ele>
        <time>2022-01-23T14:20:38Z</time>
      </trkpt>
      <trkpt lat="42.86755" lon="0.87949">
        <ele>2050</ele>
        <time>2022-01-23T14:20:47Z</time>
      </trkpt>
      <trkpt lat="42.86759" lon="0.8796">
        <ele>2050</ele>
        <time>2022-01-23T14:20:54Z</time>
      </trkpt>
      <trkpt lat="42.86761" lon="0.87973">
        <ele>2050</ele>
        <time>2022-01-23T14:21:01Z</time>
      </trkpt>
      <trkpt lat="42.86764" lon="0.87985">
        <ele>2050</ele>
        <time>2022-01-23T14:21:09Z</time>
      </trkpt>
      <trkpt lat="42.86766" lon="0.87997">
        <ele>2050</ele>
        <time>2022-01-23T14:21:18Z</time>
      </trkpt>
      <trkpt lat="42.86765" lon="0.8801">
        <ele>2050</ele>
        <time>2022-01-23T14:21:29Z</time>
      </trkpt>
      <trkpt lat="42.86767" lon="0.88022">
        <ele>2050</ele>
        <time>2022-01-23T14:21:39Z</time>
      </trkpt>
      <trkpt lat="42.86772" lon="0.88032">
        <ele>2050</ele>
        <time>2022-01-23T14:21:50Z</time>
      </trkpt>
      <trkpt lat="42.86774" lon="0.88044">
        <ele>2050</ele>
        <time>2022-01-23T14:22:03Z</time>
      </trkpt>
      <trkpt lat="42.86774" lon="0.88057">
        <ele>2050</ele>
        <time>2022-01-23T14:22:18Z</time>
      </trkpt>
      <trkpt lat="42.86773" lon="0.8807">
        <ele>2050</ele>
        <time>2022-01-23T14:22:38Z</time>
      </trkpt>
      <trkpt lat="42.86774" lon="0.88082">
        <ele>2050</ele>
        <time>2022-01-23T14:22:49Z</time>
      </trkpt>
      <trkpt lat="42.86775" lon="0.88094">
        <ele>2050</ele>
        <time>2022-01-23T14:23:03Z</time>
      </trkpt>
      <trkpt lat="42.86779" lon="0.88106">
        <ele>2050</ele>
        <time>2022-01-23T14:23:18Z</time>
      </trkpt>
      <trkpt lat="42.8678" lon="0.88118">
        <ele>2050</ele>
        <time>2022-01-23T14:23:36Z</time>
      </trkpt>
      <trkpt lat="42.86782" lon="0.88131">
        <ele>2051</ele>
        <time>2022-01-23T14:23:52Z</time>
      </trkpt>
      <trkpt lat="42.86781" lon="0.88143">
        <ele>2051</ele>
        <time>2022-01-23T14:24:10Z</time>
      </trkpt>
      <trkpt lat="42.86781" lon="0.88156">
        <ele>2051</ele>
        <time>2022-01-23T14:24:23Z</time>
      </trkpt>
      <trkpt lat="42.86782" lon="0.88169">
        <ele>2051</ele>
        <time>2022-01-23T14:24:36Z</time>
      </trkpt>
      <trkpt lat="42.86779" lon="0.8818">
        <ele>2051</ele>
        <time>2022-01-23T14:25:03Z</time>
      </trkpt>
      <trkpt lat="42.86778" lon="0.88193">
        <ele>2051</ele>
        <time>2022-01-23T14:25:17Z</time>
      </trkpt>
      <trkpt lat="42.86778" lon="0.88206">
        <ele>2051</ele>
        <time>2022-01-23T14:25:31Z</time>
      </trkpt>
      <trkpt lat="42.86778" lon="0.88218">
        <ele>2051</ele>
        <time>2022-01-23T14:25:51Z</time>
      </trkpt>
      <trkpt lat="42.86776" lon="0.8823">
        <ele>2051</ele>
        <time>2022-01-23T14:26:14Z</time>
      </trkpt>
      <trkpt lat="42.86777" lon="0.88243">
        <ele>2051</ele>
        <time>2022-01-23T14:26:25Z</time>
      </trkpt>
      <trkpt lat="42.8678" lon="0.88256">
        <ele>2051</ele>
        <time>2022-01-23T14:27:18Z</time>
      </trkpt>
      <trkpt lat="42.86783" lon="0.88268">
        <ele>2051</ele>
        <time>2022-01-23T14:27:30Z</time>
      </trkpt>
      <trkpt lat="42.86784" lon="0.88281">
        <ele>2051</ele>
        <time>2022-01-23T14:27:39Z</time>
      </trkpt>
      <trkpt lat="42.86785" lon="0.88293">
        <ele>2051</ele>
        <time>2022-01-23T14:27:56Z</time>
      </trkpt>
      <trkpt lat="42.86788" lon="0.88305">
        <ele>2051</ele>
        <time>2022-01-23T14:28:09Z</time>
      </trkpt>
      <trkpt lat="42.8679" lon="0.88318">
        <ele>2051</ele>
        <time>2022-01-23T14:28:19Z</time>
      </trkpt>
      <trkpt lat="42.86794" lon="0.8833">
        <ele>2051</ele>
        <time>2022-01-23T14:28:35Z</time>
      </trkpt>
      <trkpt lat="42.86797" lon="0.88341">
        <ele>2051</ele>
        <time>2022-01-23T14:28:47Z</time>
      </trkpt>
      <trkpt lat="42.86799" lon="0.88353">
        <ele>2051</ele>
        <time>2022-01-23T14:29:10Z</time>
      </trkpt>
      <trkpt lat="42.86804" lon="0.88365">
        <ele>2051</ele>
        <time>2022-01-23T14:29:28Z</time>
      </trkpt>
      <trkpt lat="42.86804" lon="0.88377">
        <ele>2051</ele>
        <time>2022-01-23T14:29:44Z</time>
      </trkpt>
      <trkpt lat="42.86805" lon="0.8839">
        <ele>2095</ele>
        <time>2022-01-23T14:30:02Z</time>
      </trkpt>
      <trkpt lat="42.86807" lon="0.88403">
        <ele>2095</ele>
        <time>2022-01-23T14:30:20Z</time>
      </trkpt>
      <trkpt lat="42.86806" lon="0.88415">
        <ele>2095</ele>
        <time>2022-01-23T14:30:40Z</time>
      </trkpt>
      <trkpt lat="42.86808" lon="0.88428">
        <ele>2095</ele>
        <time>2022-01-23T14:30:56Z</time>
      </trkpt>
      <trkpt lat="42.86809" lon="0.8844">
        <ele>2095</ele>
        <time>2022-01-23T14:31:12Z</time>
      </trkpt>
      <trkpt lat="42.86811" lon="0.88453">
        <ele>2095</ele>
        <time>2022-01-23T14:31:26Z</time>
      </trkpt>
      <trkpt lat="42.86808" lon="0.88466">
        <ele>2095</ele>
        <time>2022-01-23T14:31:44Z</time>
      </trkpt>
      <trkpt lat="42.86809" lon="0.88479">
        <ele>2095</ele>
        <time>2022-01-23T14:31:57Z</time>
      </trkpt>
      <trkpt lat="42.86809" lon="0.88492">
        <ele>2095</ele>
        <time>2022-01-23T14:32:11Z</time>
      </trkpt>
      <trkpt lat="42.86808" lon="0.88504">
        <ele>2095</ele>
        <time>2022-01-23T14:32:25Z</time>
      </trkpt>
      <trkpt lat="42.86806" lon="0.88517">
        <ele>2095</ele>
        <time>2022-01-23T14:32:38Z</time>
      </trkpt>
      <trkpt lat="42.86807" lon="0.88531">
        <ele>2095</ele>
        <time>2022-01-23T14:32:50Z</time>
      </trkpt>
      <trkpt lat="42.86807" lon="0.88543">
        <ele>2116</ele>
        <time>2022-01-23T14:33:02Z</time>
      </trkpt>
      <trkpt lat="42.86806" lon="0.88557">
        <ele>2116</ele>
        <time>2022-01-23T14:33:26Z</time>
      </trkpt>
      <trkpt lat="42.86805" lon="0.8857">
        <ele>2116</ele>
        <time>2022-01-23T14:33:37Z</time>
      </trkpt>
      <trkpt lat="42.86804" lon="0.88583">
        <ele>2116</ele>
        <time>2022-01-23T14:33:45Z</time>
      </trkpt>
      <trkpt lat="42.86801" lon="0.88595">
        <ele>2116</ele>
        <time>2022-01-23T14:33:56Z</time>
      </trkpt>
      <trkpt lat="42.86809" lon="0.88586">
        <ele>2116</ele>
        <time>2022-01-23T14:37:56Z</time>
      </trkpt>
      <trkpt lat="42.86803" lon="0.88596">
        <ele>2116</ele>
        <time>2022-01-23T14:39:11Z</time>
      </trkpt>
      <trkpt lat="42.86802" lon="0.88608">
        <ele>2116</ele>
        <time>2022-01-23T14:40:43Z</time>
      </trkpt>
      <trkpt lat="42.86803" lon="0.88621">
        <ele>2116</ele>
        <time>2022-01-23T14:40:54Z</time>
      </trkpt>
      <trkpt lat="42.86803" lon="0.88634">
        <ele>2116</ele>
        <time>2022-01-23T14:41:10Z</time>
      </trkpt>
      <trkpt lat="42.86806" lon="0.88646">
        <ele>2116</ele>
        <time>2022-01-23T14:41:24Z</time>
      </trkpt>
      <trkpt lat="42.86807" lon="0.88659">
        <ele>2116</ele>
        <time>2022-01-23T14:41:50Z</time>
      </trkpt>
      <trkpt lat="42.86811" lon="0.88671">
        <ele>2116</ele>
        <time>2022-01-23T14:42:07Z</time>
      </trkpt>
      <trkpt lat="42.86813" lon="0.88683">
        <ele>2116</ele>
        <time>2022-01-23T14:42:20Z</time>
      </trkpt>
      <trkpt lat="42.86818" lon="0.88696">
        <ele>2116</ele>
        <time>2022-01-23T14:42:33Z</time>
      </trkpt>
      <trkpt lat="42.86818" lon="0.88709">
        <ele>2116</ele>
        <time>2022-01-23T14:42:45Z</time>
      </trkpt>
      <trkpt lat="42.86819" lon="0.88722">
        <ele>2116</ele>
        <time>2022-01-23T14:42:56Z</time>
      </trkpt>
      <trkpt lat="42.86822" lon="0.88736">
        <ele>2116</ele>
        <time>2022-01-23T14:43:05Z</time>
      </trkpt>
      <trkpt lat="42.86813" lon="0.88733">
        <ele>2116</ele>
        <time>2022-01-23T14:43:31Z</time>
      </trkpt>
      <trkpt lat="42.86818" lon="0.88746">
        <ele>2116</ele>
        <time>2022-01-23T14:43:41Z</time>
      </trkpt>
      <trkpt lat="42.8682" lon="0.88758">
        <ele>2116</ele>
        <time>2022-01-23T14:43:46Z</time>
      </trkpt>
      <trkpt lat="42.86823" lon="0.8877">
        <ele>2116</ele>
        <time>2022-01-23T14:44:16Z</time>
      </trkpt>
      <trkpt lat="42.86822" lon="0.88784">
        <ele>2116</ele>
        <time>2022-01-23T14:44:43Z</time>
      </trkpt>
      <trkpt lat="42.86823" lon="0.88798">
        <ele>2116</ele>
        <time>2022-01-23T14:44:52Z</time>
      </trkpt>
      <trkpt lat="42.86826" lon="0.88809">
        <ele>2116</ele>
        <time>2022-01-23T14:45:10Z</time>
      </trkpt>
      <trkpt lat="42.86829" lon="0.88822">
        <ele>2116</ele>
        <time>2022-01-23T14:45:19Z</time>
      </trkpt>
      <trkpt lat="42.86832" lon="0.88834">
        <ele>2116</ele>
        <time>2022-01-23T14:45:27Z</time>
      </trkpt>
      <trkpt lat="42.86831" lon="0.88846">
        <ele>2116</ele>
        <time>2022-01-23T14:45:35Z</time>
      </trkpt>
      <trkpt lat="42.8683" lon="0.88859">
        <ele>2116</ele>
        <time>2022-01-23T14:45:43Z</time>
      </trkpt>
      <trkpt lat="42.86833" lon="0.88871">
        <ele>2116</ele>
        <time>2022-01-23T14:45:51Z</time>
      </trkpt>
      <trkpt lat="42.86835" lon="0.88883">
        <ele>2116</ele>
        <time>2022-01-23T14:45:59Z</time>
      </trkpt>
      <trkpt lat="42.86838" lon="0.88895">
        <ele>2116</ele>
        <time>2022-01-23T14:46:07Z</time>
      </trkpt>
      <trkpt lat="42.86846" lon="0.88905">
        <ele>2116</ele>
        <time>2022-01-23T14:46:15Z</time>
      </trkpt>
      <trkpt lat="42.86852" lon="0.88914">
        <ele>2116</ele>
        <time>2022-01-23T14:46:23Z</time>
      </trkpt>
      <trkpt lat="42.86857" lon="0.88925">
        <ele>2116</ele>
        <time>2022-01-23T14:46:35Z</time>
      </trkpt>
      <trkpt lat="42.86864" lon="0.88936">
        <ele>2116</ele>
        <time>2022-01-23T14:46:44Z</time>
      </trkpt>
      <trkpt lat="42.86866" lon="0.88948">
        <ele>2116</ele>
        <time>2022-01-23T14:46:54Z</time>
      </trkpt>
      <trkpt lat="42.86872" lon="0.88959">
        <ele>2116</ele>
        <time>2022-01-23T14:47:01Z</time>
      </trkpt>
      <trkpt lat="42.86878" lon="0.88967">
        <ele>2116</ele>
        <time>2022-01-23T14:47:06Z</time>
      </trkpt>
      <trkpt lat="42.86884" lon="0.88976">
        <ele>2116</ele>
        <time>2022-01-23T14:47:12Z</time>
      </trkpt>
      <trkpt lat="42.8689" lon="0.88988">
        <ele>2116</ele>
        <time>2022-01-23T14:47:20Z</time>
      </trkpt>
      <trkpt lat="42.86893" lon="0.89001">
        <ele>2116</ele>
        <time>2022-01-23T14:47:28Z</time>
      </trkpt>
      <trkpt lat="42.86896" lon="0.89013">
        <ele>2116</ele>
        <time>2022-01-23T14:47:38Z</time>
      </trkpt>
      <trkpt lat="42.86902" lon="0.89022">
        <ele>2116</ele>
        <time>2022-01-23T14:47:47Z</time>
      </trkpt>
      <trkpt lat="42.86907" lon="0.89033">
        <ele>2116</ele>
        <time>2022-01-23T14:47:55Z</time>
      </trkpt>
      <trkpt lat="42.86914" lon="0.89041">
        <ele>2116</ele>
        <time>2022-01-23T14:48:02Z</time>
      </trkpt>
      <trkpt lat="42.8692" lon="0.89052">
        <ele>2116</ele>
        <time>2022-01-23T14:48:10Z</time>
      </trkpt>
      <trkpt lat="42.86929" lon="0.89061">
        <ele>2116</ele>
        <time>2022-01-23T14:48:18Z</time>
      </trkpt>
      <trkpt lat="42.86934" lon="0.89071">
        <ele>2116</ele>
        <time>2022-01-23T14:48:27Z</time>
      </trkpt>
      <trkpt lat="42.86941" lon="0.89081">
        <ele>2116</ele>
        <time>2022-01-23T14:49:04Z</time>
      </trkpt>
      <trkpt lat="42.86948" lon="0.89089">
        <ele>2116</ele>
        <time>2022-01-23T14:49:10Z</time>
      </trkpt>
      <trkpt lat="42.86956" lon="0.89097">
        <ele>2116</ele>
        <time>2022-01-23T14:49:20Z</time>
      </trkpt>
      <trkpt lat="42.86964" lon="0.89101">
        <ele>2116</ele>
        <time>2022-01-23T14:49:35Z</time>
      </trkpt>
      <trkpt lat="42.86973" lon="0.89103">
        <ele>2116</ele>
        <time>2022-01-23T14:49:44Z</time>
      </trkpt>
      <trkpt lat="42.86983" lon="0.89102">
        <ele>2116</ele>
        <time>2022-01-23T14:50:38Z</time>
      </trkpt>
      <trkpt lat="42.86992" lon="0.89102">
        <ele>2116</ele>
        <time>2022-01-23T14:50:49Z</time>
      </trkpt>
      <trkpt lat="42.87001" lon="0.891">
        <ele>2116</ele>
        <time>2022-01-23T14:50:55Z</time>
      </trkpt>
      <trkpt lat="42.87012" lon="0.891">
        <ele>2116</ele>
        <time>2022-01-23T14:51:04Z</time>
      </trkpt>
      <trkpt lat="42.87021" lon="0.89101">
        <ele>2116</ele>
        <time>2022-01-23T14:51:10Z</time>
      </trkpt>
      <trkpt lat="42.87031" lon="0.89101">
        <ele>2116</ele>
        <time>2022-01-23T14:51:19Z</time>
      </trkpt>
      <trkpt lat="42.8704" lon="0.891">
        <ele>2116</ele>
        <time>2022-01-23T14:51:30Z</time>
      </trkpt>
      <trkpt lat="42.87051" lon="0.89097">
        <ele>2116</ele>
        <time>2022-01-23T14:51:43Z</time>
      </trkpt>
      <trkpt lat="42.87059" lon="0.89094">
        <ele>2116</ele>
        <time>2022-01-23T14:51:53Z</time>
      </trkpt>
      <trkpt lat="42.87069" lon="0.89089">
        <ele>2116</ele>
        <time>2022-01-23T14:52:11Z</time>
      </trkpt>
      <trkpt lat="42.87078" lon="0.89087">
        <ele>1935</ele>
        <time>2022-01-23T14:52:22Z</time>
      </trkpt>
      <trkpt lat="42.87087" lon="0.89087">
        <ele>1935</ele>
        <time>2022-01-23T14:52:43Z</time>
      </trkpt>
      <trkpt lat="42.87096" lon="0.89091">
        <ele>1935</ele>
        <time>2022-01-23T14:52:56Z</time>
      </trkpt>
      <trkpt lat="42.87105" lon="0.89089">
        <ele>1935</ele>
        <time>2022-01-23T14:53:04Z</time>
      </trkpt>
      <trkpt lat="42.87116" lon="0.8909">
        <ele>1935</ele>
        <time>2022-01-23T14:53:14Z</time>
      </trkpt>
      <trkpt lat="42.87125" lon="0.89089">
        <ele>1935</ele>
        <time>2022-01-23T14:53:25Z</time>
      </trkpt>
      <trkpt lat="42.87135" lon="0.8909">
        <ele>1935</ele>
        <time>2022-01-23T14:53:35Z</time>
      </trkpt>
      <trkpt lat="42.87144" lon="0.89092">
        <ele>1935</ele>
        <time>2022-01-23T14:53:43Z</time>
      </trkpt>
      <trkpt lat="42.87154" lon="0.89093">
        <ele>1935</ele>
        <time>2022-01-23T14:53:57Z</time>
      </trkpt>
      <trkpt lat="42.87163" lon="0.89096">
        <ele>1935</ele>
        <time>2022-01-23T14:54:04Z</time>
      </trkpt>
      <trkpt lat="42.87171" lon="0.89101">
        <ele>1935</ele>
        <time>2022-01-23T14:54:14Z</time>
      </trkpt>
      <trkpt lat="42.87179" lon="0.89106">
        <ele>1935</ele>
        <time>2022-01-23T14:54:22Z</time>
      </trkpt>
      <trkpt lat="42.87189" lon="0.89108">
        <ele>1935</ele>
        <time>2022-01-23T14:54:33Z</time>
      </trkpt>
      <trkpt lat="42.87198" lon="0.89112">
        <ele>1935</ele>
        <time>2022-01-23T14:54:43Z</time>
      </trkpt>
      <trkpt lat="42.87206" lon="0.8912">
        <ele>1935</ele>
        <time>2022-01-23T14:55:00Z</time>
      </trkpt>
      <trkpt lat="42.87215" lon="0.89124">
        <ele>1935</ele>
        <time>2022-01-23T14:55:16Z</time>
      </trkpt>
      <trkpt lat="42.87224" lon="0.89128">
        <ele>1935</ele>
        <time>2022-01-23T14:55:25Z</time>
      </trkpt>
      <trkpt lat="42.87231" lon="0.89137">
        <ele>1935</ele>
        <time>2022-01-23T14:55:37Z</time>
      </trkpt>
      <trkpt lat="42.87239" lon="0.89143">
        <ele>1935</ele>
        <time>2022-01-23T14:55:48Z</time>
      </trkpt>
      <trkpt lat="42.87247" lon="0.89147">
        <ele>1935</ele>
        <time>2022-01-23T14:55:57Z</time>
      </trkpt>
      <trkpt lat="42.87256" lon="0.89153">
        <ele>1935</ele>
        <time>2022-01-23T14:57:07Z</time>
      </trkpt>
      <trkpt lat="42.87264" lon="0.8916">
        <ele>1935</ele>
        <time>2022-01-23T14:57:23Z</time>
      </trkpt>
      <trkpt lat="42.87273" lon="0.89166">
        <ele>1935</ele>
        <time>2022-01-23T14:57:35Z</time>
      </trkpt>
      <trkpt lat="42.87281" lon="0.89172">
        <ele>1935</ele>
        <time>2022-01-23T14:57:48Z</time>
      </trkpt>
      <trkpt lat="42.8729" lon="0.89176">
        <ele>1935</ele>
        <time>2022-01-23T14:57:57Z</time>
      </trkpt>
      <trkpt lat="42.87299" lon="0.8918">
        <ele>1935</ele>
        <time>2022-01-23T14:58:09Z</time>
      </trkpt>
      <trkpt lat="42.87308" lon="0.89176">
        <ele>1935</ele>
        <time>2022-01-23T14:58:54Z</time>
      </trkpt>
      <trkpt lat="42.87317" lon="0.89176">
        <ele>1935</ele>
        <time>2022-01-23T14:59:08Z</time>
      </trkpt>
      <trkpt lat="42.87326" lon="0.89178">
        <ele>1935</ele>
        <time>2022-01-23T14:59:21Z</time>
      </trkpt>
      <trkpt lat="42.87335" lon="0.89182">
        <ele>1935</ele>
        <time>2022-01-23T14:59:30Z</time>
      </trkpt>
      <trkpt lat="42.87343" lon="0.89188">
        <ele>1935</ele>
        <time>2022-01-23T14:59:54Z</time>
      </trkpt>
      <trkpt lat="42.87353" lon="0.89187">
        <ele>1935</ele>
        <time>2022-01-23T15:00:21Z</time>
      </trkpt>
      <trkpt lat="42.87362" lon="0.89191">
        <ele>1935</ele>
        <time>2022-01-23T15:00:35Z</time>
      </trkpt>
      <trkpt lat="42.87371" lon="0.89194">
        <ele>1935</ele>
        <time>2022-01-23T15:00:48Z</time>
      </trkpt>
      <trkpt lat="42.8738" lon="0.89197">
        <ele>1935</ele>
        <time>2022-01-23T15:00:58Z</time>
      </trkpt>
      <trkpt lat="42.87389" lon="0.89201">
        <ele>1935</ele>
        <time>2022-01-23T15:01:10Z</time>
      </trkpt>
      <trkpt lat="42.87399" lon="0.89202">
        <ele>1935</ele>
        <time>2022-01-23T15:01:35Z</time>
      </trkpt>
      <trkpt lat="42.87408" lon="0.89204">
        <ele>1935</ele>
        <time>2022-01-23T15:01:47Z</time>
      </trkpt>
      <trkpt lat="42.87418" lon="0.89204">
        <ele>1935</ele>
        <time>2022-01-23T15:02:10Z</time>
      </trkpt>
      <trkpt lat="42.87427" lon="0.89205">
        <ele>1935</ele>
        <time>2022-01-23T15:02:22Z</time>
      </trkpt>
      <trkpt lat="42.87436" lon="0.89202">
        <ele>1935</ele>
        <time>2022-01-23T15:02:35Z</time>
      </trkpt>
      <trkpt lat="42.87445" lon="0.89197">
        <ele>1935</ele>
        <time>2022-01-23T15:02:49Z</time>
      </trkpt>
      <trkpt lat="42.87453" lon="0.89191">
        <ele>1935</ele>
        <time>2022-01-23T15:03:59Z</time>
      </trkpt>
      <trkpt lat="42.87462" lon="0.89188">
        <ele>1935</ele>
        <time>2022-01-23T15:04:10Z</time>
      </trkpt>
      <trkpt lat="42.87471" lon="0.89186">
        <ele>1935</ele>
        <time>2022-01-23T15:04:29Z</time>
      </trkpt>
      <trkpt lat="42.8748" lon="0.89182">
        <ele>1935</ele>
        <time>2022-01-23T15:04:44Z</time>
      </trkpt>
      <trkpt lat="42.87484" lon="0.89171">
        <ele>1935</ele>
        <time>2022-01-23T15:04:58Z</time>
      </trkpt>
      <trkpt lat="42.87484" lon="0.89158">
        <ele>1935</ele>
        <time>2022-01-23T15:05:11Z</time>
      </trkpt>
      <trkpt lat="42.87491" lon="0.8915">
        <ele>1935</ele>
        <time>2022-01-23T15:05:38Z</time>
      </trkpt>
      <trkpt lat="42.87499" lon="0.89142">
        <ele>1935</ele>
        <time>2022-01-23T15:05:57Z</time>
      </trkpt>
      <trkpt lat="42.87504" lon="0.89131">
        <ele>1700</ele>
        <time>2022-01-23T15:06:12Z</time>
      </trkpt>
      <trkpt lat="42.87513" lon="0.89124">
        <ele>1700</ele>
        <time>2022-01-23T15:06:24Z</time>
      </trkpt>
      <trkpt lat="42.87522" lon="0.89119">
        <ele>1689</ele>
        <time>2022-01-23T15:06:32Z</time>
      </trkpt>
      <trkpt lat="42.87531" lon="0.89118">
        <ele>1689</ele>
        <time>2022-01-23T15:06:39Z</time>
      </trkpt>
      <trkpt lat="42.8754" lon="0.89122">
        <ele>1689</ele>
        <time>2022-01-23T15:06:49Z</time>
      </trkpt>
      <trkpt lat="42.8755" lon="0.89121">
        <ele>1689</ele>
        <time>2022-01-23T15:06:56Z</time>
      </trkpt>
      <trkpt lat="42.87559" lon="0.8912">
        <ele>1689</ele>
        <time>2022-01-23T15:07:03Z</time>
      </trkpt>
      <trkpt lat="42.87567" lon="0.89112">
        <ele>1689</ele>
        <time>2022-01-23T15:07:11Z</time>
      </trkpt>
      <trkpt lat="42.87575" lon="0.89119">
        <ele>1689</ele>
        <time>2022-01-23T15:09:21Z</time>
      </trkpt>
      <trkpt lat="42.87584" lon="0.89122">
        <ele>1689</ele>
        <time>2022-01-23T15:09:30Z</time>
      </trkpt>
      <trkpt lat="42.87592" lon="0.89118">
        <ele>1689</ele>
        <time>2022-01-23T15:10:09Z</time>
      </trkpt>
      <trkpt lat="42.87601" lon="0.89114">
        <ele>1689</ele>
        <time>2022-01-23T15:10:16Z</time>
      </trkpt>
      <trkpt lat="42.87609" lon="0.89109">
        <ele>1689</ele>
        <time>2022-01-23T15:10:26Z</time>
      </trkpt>
      <trkpt lat="42.87618" lon="0.89108">
        <ele>1689</ele>
        <time>2022-01-23T15:10:34Z</time>
      </trkpt>
      <trkpt lat="42.87627" lon="0.89104">
        <ele>1689</ele>
        <time>2022-01-23T15:10:44Z</time>
      </trkpt>
      <trkpt lat="42.87636" lon="0.89102">
        <ele>1689</ele>
        <time>2022-01-23T15:10:54Z</time>
      </trkpt>
      <trkpt lat="42.87645" lon="0.89103">
        <ele>1689</ele>
        <time>2022-01-23T15:11:03Z</time>
      </trkpt>
      <trkpt lat="42.87654" lon="0.89101">
        <ele>1689</ele>
        <time>2022-01-23T15:11:11Z</time>
      </trkpt>
      <trkpt lat="42.87662" lon="0.89092">
        <ele>1689</ele>
        <time>2022-01-23T15:12:16Z</time>
      </trkpt>
      <trkpt lat="42.8767" lon="0.89086">
        <ele>1689</ele>
        <time>2022-01-23T15:12:28Z</time>
      </trkpt>
      <trkpt lat="42.87678" lon="0.89081">
        <ele>1689</ele>
        <time>2022-01-23T15:12:41Z</time>
      </trkpt>
      <trkpt lat="42.87687" lon="0.89072">
        <ele>1689</ele>
        <time>2022-01-23T15:12:50Z</time>
      </trkpt>
      <trkpt lat="42.87696" lon="0.89068">
        <ele>1689</ele>
        <time>2022-01-23T15:12:58Z</time>
      </trkpt>
      <trkpt lat="42.87705" lon="0.89063">
        <ele>1689</ele>
        <time>2022-01-23T15:13:06Z</time>
      </trkpt>
      <trkpt lat="42.87714" lon="0.89061">
        <ele>1689</ele>
        <time>2022-01-23T15:13:15Z</time>
      </trkpt>
      <trkpt lat="42.87724" lon="0.89062">
        <ele>1689</ele>
        <time>2022-01-23T15:13:38Z</time>
      </trkpt>
      <trkpt lat="42.87734" lon="0.89061">
        <ele>1689</ele>
        <time>2022-01-23T15:13:48Z</time>
      </trkpt>
      <trkpt lat="42.87743" lon="0.89061">
        <ele>1689</ele>
        <time>2022-01-23T15:14:05Z</time>
      </trkpt>
      <trkpt lat="42.87752" lon="0.89061">
        <ele>1597</ele>
        <time>2022-01-23T15:14:12Z</time>
      </trkpt>
      <trkpt lat="42.87761" lon="0.89062">
        <ele>1597</ele>
        <time>2022-01-23T15:14:21Z</time>
      </trkpt>
      <trkpt lat="42.87772" lon="0.89062">
        <ele>1588</ele>
        <time>2022-01-23T15:14:32Z</time>
      </trkpt>
      <trkpt lat="42.87781" lon="0.8906">
        <ele>1588</ele>
        <time>2022-01-23T15:14:50Z</time>
      </trkpt>
      <trkpt lat="42.8779" lon="0.89061">
        <ele>1588</ele>
        <time>2022-01-23T15:15:02Z</time>
      </trkpt>
      <trkpt lat="42.878" lon="0.8906">
        <ele>1588</ele>
        <time>2022-01-23T15:15:10Z</time>
      </trkpt>
      <trkpt lat="42.87808" lon="0.89055">
        <ele>1588</ele>
        <time>2022-01-23T15:15:18Z</time>
      </trkpt>
      <trkpt lat="42.87814" lon="0.89045">
        <ele>1588</ele>
        <time>2022-01-23T15:15:27Z</time>
      </trkpt>
      <trkpt lat="42.8782" lon="0.89034">
        <ele>1588</ele>
        <time>2022-01-23T15:16:15Z</time>
      </trkpt>
      <trkpt lat="42.87826" lon="0.89026">
        <ele>1588</ele>
        <time>2022-01-23T15:16:23Z</time>
      </trkpt>
      <trkpt lat="42.87834" lon="0.8902">
        <ele>1588</ele>
        <time>2022-01-23T15:16:31Z</time>
      </trkpt>
      <trkpt lat="42.87843" lon="0.89022">
        <ele>1588</ele>
        <time>2022-01-23T15:16:40Z</time>
      </trkpt>
      <trkpt lat="42.87848" lon="0.89011">
        <ele>1588</ele>
        <time>2022-01-23T15:16:52Z</time>
      </trkpt>
      <trkpt lat="42.87853" lon="0.89001">
        <ele>1588</ele>
        <time>2022-01-23T15:17:05Z</time>
      </trkpt>
      <trkpt lat="42.87859" lon="0.88991">
        <ele>1588</ele>
        <time>2022-01-23T15:17:19Z</time>
      </trkpt>
      <trkpt lat="42.87858" lon="0.88979">
        <ele>1588</ele>
        <time>2022-01-23T15:17:26Z</time>
      </trkpt>
      <trkpt lat="42.87862" lon="0.88968">
        <ele>1588</ele>
        <time>2022-01-23T15:17:34Z</time>
      </trkpt>
      <trkpt lat="42.87871" lon="0.88966">
        <ele>1588</ele>
        <time>2022-01-23T15:17:50Z</time>
      </trkpt>
      <trkpt lat="42.87881" lon="0.88962">
        <ele>1588</ele>
        <time>2022-01-23T15:18:00Z</time>
      </trkpt>
      <trkpt lat="42.87889" lon="0.88956">
        <ele>1588</ele>
        <time>2022-01-23T15:18:14Z</time>
      </trkpt>
      <trkpt lat="42.87899" lon="0.88953">
        <ele>1588</ele>
        <time>2022-01-23T15:18:27Z</time>
      </trkpt>
      <trkpt lat="42.87908" lon="0.88959">
        <ele>1588</ele>
        <time>2022-01-23T15:18:35Z</time>
      </trkpt>
      <trkpt lat="42.87916" lon="0.88966">
        <ele>1588</ele>
        <time>2022-01-23T15:18:44Z</time>
      </trkpt>
      <trkpt lat="42.87923" lon="0.88974">
        <ele>1588</ele>
        <time>2022-01-23T15:18:58Z</time>
      </trkpt>
      <trkpt lat="42.8793" lon="0.88984">
        <ele>1588</ele>
        <time>2022-01-23T15:19:08Z</time>
      </trkpt>
      <trkpt lat="42.87936" lon="0.88995">
        <ele>1588</ele>
        <time>2022-01-23T15:19:22Z</time>
      </trkpt>
      <trkpt lat="42.87943" lon="0.89005">
        <ele>1572</ele>
        <time>2022-01-23T15:19:32Z</time>
      </trkpt>
      <trkpt lat="42.87952" lon="0.8901">
        <ele>1572</ele>
        <time>2022-01-23T15:19:42Z</time>
      </trkpt>
      <trkpt lat="42.87961" lon="0.89011">
        <ele>1572</ele>
        <time>2022-01-23T15:20:08Z</time>
      </trkpt>
      <trkpt lat="42.8797" lon="0.8901">
        <ele>1572</ele>
        <time>2022-01-23T15:20:23Z</time>
      </trkpt>
      <trkpt lat="42.87979" lon="0.89004">
        <ele>1572</ele>
        <time>2022-01-23T15:20:39Z</time>
      </trkpt>
      <trkpt lat="42.87986" lon="0.88997">
        <ele>1572</ele>
        <time>2022-01-23T15:20:51Z</time>
      </trkpt>
      <trkpt lat="42.87995" lon="0.88994">
        <ele>1572</ele>
        <time>2022-01-23T15:21:00Z</time>
      </trkpt>
      <trkpt lat="42.88003" lon="0.88987">
        <ele>1572</ele>
        <time>2022-01-23T15:21:15Z</time>
      </trkpt>
      <trkpt lat="42.88012" lon="0.88989">
        <ele>1572</ele>
        <time>2022-01-23T15:21:23Z</time>
      </trkpt>
      <trkpt lat="42.88022" lon="0.88986">
        <ele>1572</ele>
        <time>2022-01-23T15:21:56Z</time>
      </trkpt>
      <trkpt lat="42.8803" lon="0.88993">
        <ele>1572</ele>
        <time>2022-01-23T15:22:06Z</time>
      </trkpt>
      <trkpt lat="42.88033" lon="0.89006">
        <ele>1572</ele>
        <time>2022-01-23T15:22:15Z</time>
      </trkpt>
      <trkpt lat="42.88036" lon="0.89018">
        <ele>1533</ele>
        <time>2022-01-23T15:22:22Z</time>
      </trkpt>
      <trkpt lat="42.88041" lon="0.89029">
        <ele>1533</ele>
        <time>2022-01-23T15:22:31Z</time>
      </trkpt>
      <trkpt lat="42.88051" lon="0.89031">
        <ele>1533</ele>
        <time>2022-01-23T15:22:40Z</time>
      </trkpt>
      <trkpt lat="42.8806" lon="0.89036">
        <ele>1533</ele>
        <time>2022-01-23T15:23:01Z</time>
      </trkpt>
      <trkpt lat="42.8807" lon="0.89036">
        <ele>1533</ele>
        <time>2022-01-23T15:23:23Z</time>
      </trkpt>
      <trkpt lat="42.8808" lon="0.89035">
        <ele>1533</ele>
        <time>2022-01-23T15:23:34Z</time>
      </trkpt>
      <trkpt lat="42.88089" lon="0.89036">
        <ele>1533</ele>
        <time>2022-01-23T15:23:43Z</time>
      </trkpt>
      <trkpt lat="42.88098" lon="0.89042">
        <ele>1533</ele>
        <time>2022-01-23T15:24:15Z</time>
      </trkpt>
      <trkpt lat="42.88108" lon="0.89044">
        <ele>1533</ele>
        <time>2022-01-23T15:24:26Z</time>
      </trkpt>
      <trkpt lat="42.88117" lon="0.89039">
        <ele>1533</ele>
        <time>2022-01-23T15:24:35Z</time>
      </trkpt>
      <trkpt lat="42.88127" lon="0.89035">
        <ele>1533</ele>
        <time>2022-01-23T15:24:42Z</time>
      </trkpt>
      <trkpt lat="42.88135" lon="0.89028">
        <ele>1533</ele>
        <time>2022-01-23T15:24:57Z</time>
      </trkpt>
      <trkpt lat="42.88144" lon="0.89025">
        <ele>1533</ele>
        <time>2022-01-23T15:25:12Z</time>
      </trkpt>
      <trkpt lat="42.88154" lon="0.89024">
        <ele>1533</ele>
        <time>2022-01-23T15:25:20Z</time>
      </trkpt>
      <trkpt lat="42.88163" lon="0.89023">
        <ele>1533</ele>
        <time>2022-01-23T15:25:31Z</time>
      </trkpt>
      <trkpt lat="42.88173" lon="0.89022">
        <ele>1533</ele>
        <time>2022-01-23T15:25:48Z</time>
      </trkpt>
      <trkpt lat="42.88182" lon="0.8902">
        <ele>1533</ele>
        <time>2022-01-23T15:25:57Z</time>
      </trkpt>
      <trkpt lat="42.88192" lon="0.89018">
        <ele>1533</ele>
        <time>2022-01-23T15:26:11Z</time>
      </trkpt>
      <trkpt lat="42.88201" lon="0.89016">
        <ele>1533</ele>
        <time>2022-01-23T15:26:20Z</time>
      </trkpt>
      <trkpt lat="42.88209" lon="0.89009">
        <ele>1533</ele>
        <time>2022-01-23T15:26:30Z</time>
      </trkpt>
      <trkpt lat="42.88218" lon="0.89007">
        <ele>1533</ele>
        <time>2022-01-23T15:26:40Z</time>
      </trkpt>
      <trkpt lat="42.88228" lon="0.89005">
        <ele>1533</ele>
        <time>2022-01-23T15:26:48Z</time>
      </trkpt>
      <trkpt lat="42.88237" lon="0.89005">
        <ele>1533</ele>
        <time>2022-01-23T15:27:06Z</time>
      </trkpt>
      <trkpt lat="42.88247" lon="0.89006">
        <ele>1533</ele>
        <time>2022-01-23T15:27:15Z</time>
      </trkpt>
      <trkpt lat="42.88256" lon="0.89008">
        <ele>1533</ele>
        <time>2022-01-23T15:27:29Z</time>
      </trkpt>
      <trkpt lat="42.88265" lon="0.8901">
        <ele>1533</ele>
        <time>2022-01-23T15:27:42Z</time>
      </trkpt>
      <trkpt lat="42.88274" lon="0.8901">
        <ele>1533</ele>
        <time>2022-01-23T15:28:04Z</time>
      </trkpt>
      <trkpt lat="42.88284" lon="0.89006">
        <ele>1533</ele>
        <time>2022-01-23T15:28:13Z</time>
      </trkpt>
      <trkpt lat="42.88293" lon="0.89001">
        <ele>1533</ele>
        <time>2022-01-23T15:28:25Z</time>
      </trkpt>
      <trkpt lat="42.88302" lon="0.88996">
        <ele>1533</ele>
        <time>2022-01-23T15:28:39Z</time>
      </trkpt>
      <trkpt lat="42.88312" lon="0.88998">
        <ele>1533</ele>
        <time>2022-01-23T15:28:58Z</time>
      </trkpt>
      <trkpt lat="42.88321" lon="0.89001">
        <ele>1533</ele>
        <time>2022-01-23T15:29:08Z</time>
      </trkpt>
      <trkpt lat="42.8833" lon="0.88997">
        <ele>1533</ele>
        <time>2022-01-23T15:29:20Z</time>
      </trkpt>
      <trkpt lat="42.8834" lon="0.88993">
        <ele>1533</ele>
        <time>2022-01-23T15:29:31Z</time>
      </trkpt>
      <trkpt lat="42.88349" lon="0.88991">
        <ele>1533</ele>
        <time>2022-01-23T15:29:55Z</time>
      </trkpt>
      <trkpt lat="42.88358" lon="0.88992">
        <ele>1533</ele>
        <time>2022-01-23T15:30:09Z</time>
      </trkpt>
      <trkpt lat="42.88367" lon="0.88991">
        <ele>1533</ele>
        <time>2022-01-23T15:30:16Z</time>
      </trkpt>
      <trkpt lat="42.88377" lon="0.88991">
        <ele>1533</ele>
        <time>2022-01-23T15:30:23Z</time>
      </trkpt>
      <trkpt lat="42.88388" lon="0.88991">
        <ele>1533</ele>
        <time>2022-01-23T15:30:41Z</time>
      </trkpt>
      <trkpt lat="42.88396" lon="0.88984">
        <ele>1533</ele>
        <time>2022-01-23T15:30:53Z</time>
      </trkpt>
      <trkpt lat="42.88401" lon="0.88996">
        <ele>1533</ele>
        <time>2022-01-23T15:33:43Z</time>
      </trkpt>
      <trkpt lat="42.88401" lon="0.89011">
        <ele>1533</ele>
        <time>2022-01-23T15:33:51Z</time>
      </trkpt>
      <trkpt lat="42.88399" lon="0.89024">
        <ele>1533</ele>
        <time>2022-01-23T15:34:00Z</time>
      </trkpt>
      <trkpt lat="42.88395" lon="0.89038">
        <ele>1533</ele>
        <time>2022-01-23T15:34:09Z</time>
      </trkpt>
      <trkpt lat="42.88394" lon="0.89052">
        <ele>1533</ele>
        <time>2022-01-23T15:34:17Z</time>
      </trkpt>
      <trkpt lat="42.88396" lon="0.89064">
        <ele>1533</ele>
        <time>2022-01-23T15:34:26Z</time>
      </trkpt>
      <trkpt lat="42.88398" lon="0.89078">
        <ele>1533</ele>
        <time>2022-01-23T15:34:33Z</time>
      </trkpt>
      <trkpt lat="42.884" lon="0.8909">
        <ele>1533</ele>
        <time>2022-01-23T15:34:41Z</time>
      </trkpt>
      <trkpt lat="42.88401" lon="0.89103">
        <ele>1533</ele>
        <time>2022-01-23T15:34:48Z</time>
      </trkpt>
      <trkpt lat="42.88404" lon="0.89115">
        <ele>1533</ele>
        <time>2022-01-23T15:34:55Z</time>
      </trkpt>
      <trkpt lat="42.88406" lon="0.89128">
        <ele>1533</ele>
        <time>2022-01-23T15:35:03Z</time>
      </trkpt>
      <trkpt lat="42.88408" lon="0.89141">
        <ele>1533</ele>
        <time>2022-01-23T15:35:12Z</time>
      </trkpt>
      <trkpt lat="42.88407" lon="0.89154">
        <ele>1388</ele>
        <time>2022-01-23T15:35:22Z</time>
      </trkpt>
      <trkpt lat="42.88405" lon="0.89166">
        <ele>1388</ele>
        <time>2022-01-23T15:35:31Z</time>
      </trkpt>
      <trkpt lat="42.88403" lon="0.89178">
        <ele>1388</ele>
        <time>2022-01-23T15:35:44Z</time>
      </trkpt>
      <trkpt lat="42.88401" lon="0.89191">
        <ele>1388</ele>
        <time>2022-01-23T15:35:53Z</time>
      </trkpt>
      <trkpt lat="42.88397" lon="0.89204">
        <ele>1388</ele>
        <time>2022-01-23T15:36:01Z</time>
      </trkpt>
      <trkpt lat="42.88394" lon="0.89216">
        <ele>1388</ele>
        <time>2022-01-23T15:36:09Z</time>
      </trkpt>
      <trkpt lat="42.88392" lon="0.89228">
        <ele>1388</ele>
        <time>2022-01-23T15:36:17Z</time>
      </trkpt>
      <trkpt lat="42.88385" lon="0.89238">
        <ele>1388</ele>
        <time>2022-01-23T15:36:26Z</time>
      </trkpt>
      <trkpt lat="42.88376" lon="0.8924">
        <ele>1388</ele>
        <time>2022-01-23T15:36:39Z</time>
      </trkpt>
      <trkpt lat="42.8837" lon="0.89252">
        <ele>1388</ele>
        <time>2022-01-23T15:36:48Z</time>
      </trkpt>
      <trkpt lat="42.88362" lon="0.8926">
        <ele>1388</ele>
        <time>2022-01-23T15:36:59Z</time>
      </trkpt>
      <trkpt lat="42.88353" lon="0.89264">
        <ele>1388</ele>
        <time>2022-01-23T15:37:07Z</time>
      </trkpt>
      <trkpt lat="42.88344" lon="0.89271">
        <ele>1388</ele>
        <time>2022-01-23T15:37:45Z</time>
      </trkpt>
      <trkpt lat="42.88344" lon="0.89284">
        <ele>1388</ele>
        <time>2022-01-23T15:37:53Z</time>
      </trkpt>
      <trkpt lat="42.88343" lon="0.89296">
        <ele>1388</ele>
        <time>2022-01-23T15:38:23Z</time>
      </trkpt>
      <trkpt lat="42.88337" lon="0.89306">
        <ele>1388</ele>
        <time>2022-01-23T15:38:30Z</time>
      </trkpt>
      <trkpt lat="42.88335" lon="0.89319">
        <ele>1388</ele>
        <time>2022-01-23T15:38:39Z</time>
      </trkpt>
      <trkpt lat="42.88338" lon="0.89331">
        <ele>1388</ele>
        <time>2022-01-23T15:38:47Z</time>
      </trkpt>
      <trkpt lat="42.88343" lon="0.89341">
        <ele>1388</ele>
        <time>2022-01-23T15:39:01Z</time>
      </trkpt>
      <trkpt lat="42.88345" lon="0.89353">
        <ele>1388</ele>
        <time>2022-01-23T15:39:08Z</time>
      </trkpt>
      <trkpt lat="42.88347" lon="0.89366">
        <ele>1388</ele>
        <time>2022-01-23T15:39:18Z</time>
      </trkpt>
      <trkpt lat="42.88353" lon="0.89376">
        <ele>1388</ele>
        <time>2022-01-23T15:39:26Z</time>
      </trkpt>
      <trkpt lat="42.88353" lon="0.89389">
        <ele>1388</ele>
        <time>2022-01-23T15:39:40Z</time>
      </trkpt>
      <trkpt lat="42.88362" lon="0.89395">
        <ele>1388</ele>
        <time>2022-01-23T15:39:48Z</time>
      </trkpt>
      <trkpt lat="42.8837" lon="0.894">
        <ele>1388</ele>
        <time>2022-01-23T15:39:54Z</time>
      </trkpt>
      <trkpt lat="42.88373" lon="0.89413">
        <ele>1388</ele>
        <time>2022-01-23T15:40:03Z</time>
      </trkpt>
      <trkpt lat="42.88379" lon="0.89422">
        <ele>1388</ele>
        <time>2022-01-23T15:40:15Z</time>
      </trkpt>
      <trkpt lat="42.88389" lon="0.89422">
        <ele>1388</ele>
        <time>2022-01-23T15:40:22Z</time>
      </trkpt>
      <trkpt lat="42.884" lon="0.89428">
        <ele>1388</ele>
        <time>2022-01-23T15:40:39Z</time>
      </trkpt>
      <trkpt lat="42.8841" lon="0.89431">
        <ele>1388</ele>
        <time>2022-01-23T15:40:46Z</time>
      </trkpt>
      <trkpt lat="42.88416" lon="0.8944">
        <ele>1388</ele>
        <time>2022-01-23T15:40:54Z</time>
      </trkpt>
      <trkpt lat="42.88411" lon="0.89451">
        <ele>1388</ele>
        <time>2022-01-23T15:41:04Z</time>
      </trkpt>
      <trkpt lat="42.88403" lon="0.89459">
        <ele>1388</ele>
        <time>2022-01-23T15:41:12Z</time>
      </trkpt>
      <trkpt lat="42.88404" lon="0.89472">
        <ele>1388</ele>
        <time>2022-01-23T15:41:24Z</time>
      </trkpt>
      <trkpt lat="42.88403" lon="0.89484">
        <ele>1388</ele>
        <time>2022-01-23T15:41:33Z</time>
      </trkpt>
      <trkpt lat="42.88403" lon="0.89497">
        <ele>1388</ele>
        <time>2022-01-23T15:41:43Z</time>
      </trkpt>
      <trkpt lat="42.88406" lon="0.89509">
        <ele>1388</ele>
        <time>2022-01-23T15:41:54Z</time>
      </trkpt>
      <trkpt lat="42.88402" lon="0.8952">
        <ele>1388</ele>
        <time>2022-01-23T15:42:05Z</time>
      </trkpt>
      <trkpt lat="42.88411" lon="0.89522">
        <ele>1388</ele>
        <time>2022-01-23T15:42:24Z</time>
      </trkpt>
      <trkpt lat="42.8842" lon="0.89523">
        <ele>1388</ele>
        <time>2022-01-23T15:42:34Z</time>
      </trkpt>
      <trkpt lat="42.88412" lon="0.89531">
        <ele>1388</ele>
        <time>2022-01-23T15:42:48Z</time>
      </trkpt>
      <trkpt lat="42.8841" lon="0.89544">
        <ele>1388</ele>
        <time>2022-01-23T15:43:05Z</time>
      </trkpt>
      <trkpt lat="42.88408" lon="0.89557">
        <ele>1388</ele>
        <time>2022-01-23T15:43:24Z</time>
      </trkpt>
      <trkpt lat="42.88411" lon="0.89569">
        <ele>1388</ele>
        <time>2022-01-23T15:43:42Z</time>
      </trkpt>
      <trkpt lat="42.8842" lon="0.89565">
        <ele>1388</ele>
        <time>2022-01-23T15:52:50Z</time>
      </trkpt>
      <trkpt lat="42.8843" lon="0.89561">
        <ele>1388</ele>
        <time>2022-01-23T15:53:05Z</time>
      </trkpt>
      <trkpt lat="42.88439" lon="0.89559">
        <ele>1388</ele>
        <time>2022-01-23T15:53:29Z</time>
      </trkpt>
      <trkpt lat="42.88432" lon="0.89567">
        <ele>1388</ele>
        <time>2022-01-23T15:53:37Z</time>
      </trkpt>
      <trkpt lat="42.88434" lon="0.8958">
        <ele>1388</ele>
        <time>2022-01-23T15:54:15Z</time>
      </trkpt>
      <trkpt lat="42.88428" lon="0.89592">
        <ele>1388</ele>
        <time>2022-01-23T15:54:24Z</time>
      </trkpt>
      <trkpt lat="42.88436" lon="0.896">
        <ele>1388</ele>
        <time>2022-01-23T15:54:38Z</time>
      </trkpt>
      <trkpt lat="42.88445" lon="0.89604">
        <ele>1388</ele>
        <time>2022-01-23T15:55:03Z</time>
      </trkpt>
      <trkpt lat="42.88444" lon="0.89617">
        <ele>1388</ele>
        <time>2022-01-23T15:55:17Z</time>
      </trkpt>
      <trkpt lat="42.88452" lon="0.89629">
        <ele>1388</ele>
        <time>2022-01-23T15:55:26Z</time>
      </trkpt>
      <trkpt lat="42.88468" lon="0.8963">
        <ele>1388</ele>
        <time>2022-01-23T15:56:17Z</time>
      </trkpt>
      <trkpt lat="42.88458" lon="0.89627">
        <ele>1274</ele>
        <time>2022-01-23T15:56:23Z</time>
      </trkpt>
      <trkpt lat="42.88449" lon="0.89629">
        <ele>1274</ele>
        <time>2022-01-23T15:56:25Z</time>
      </trkpt>
      <trkpt lat="42.88434" lon="0.89631">
        <ele>1274</ele>
        <time>2022-01-23T15:56:28Z</time>
      </trkpt>
      <trkpt lat="42.8844" lon="0.89621">
        <ele>1274</ele>
        <time>2022-01-23T15:56:44Z</time>
      </trkpt>
      <trkpt lat="42.88442" lon="0.89633">
        <ele>1274</ele>
        <time>2022-01-23T15:57:23Z</time>
      </trkpt>
      <trkpt lat="42.88449" lon="0.89643">
        <ele>1274</ele>
        <time>2022-01-23T15:57:53Z</time>
      </trkpt>
      <trkpt lat="42.88459" lon="0.89638">
        <ele>1274</ele>
        <time>2022-01-23T15:58:02Z</time>
      </trkpt>
      <trkpt lat="42.88453" lon="0.89649">
        <ele>1274</ele>
        <time>2022-01-23T15:58:15Z</time>
      </trkpt>
      <trkpt lat="42.88462" lon="0.89648">
        <ele>1274</ele>
        <time>2022-01-23T15:58:28Z</time>
      </trkpt>
      <trkpt lat="42.88472" lon="0.89646">
        <ele>1274</ele>
        <time>2022-01-23T15:59:47Z</time>
      </trkpt>
      <trkpt lat="42.88479" lon="0.89637">
        <ele>1274</ele>
        <time>2022-01-23T15:59:58Z</time>
      </trkpt>
      <trkpt lat="42.88485" lon="0.89625">
        <ele>1274</ele>
        <time>2022-01-23T16:00:05Z</time>
      </trkpt>
      <trkpt lat="42.88491" lon="0.89616">
        <ele>1274</ele>
        <time>2022-01-23T16:00:14Z</time>
      </trkpt>
      <trkpt lat="42.88499" lon="0.89624">
        <ele>1274</ele>
        <time>2022-01-23T16:00:43Z</time>
      </trkpt>
      <trkpt lat="42.88504" lon="0.89635">
        <ele>1235</ele>
        <time>2022-01-23T16:01:12Z</time>
      </trkpt>
      <trkpt lat="42.88509" lon="0.89647">
        <ele>1235</ele>
        <time>2022-01-23T16:01:27Z</time>
      </trkpt>
      <trkpt lat="42.88505" lon="0.89659">
        <ele>1235</ele>
        <time>2022-01-23T16:01:35Z</time>
      </trkpt>
      <trkpt lat="42.88501" lon="0.89671">
        <ele>1235</ele>
        <time>2022-01-23T16:01:44Z</time>
      </trkpt>
      <trkpt lat="42.88498" lon="0.89683">
        <ele>1235</ele>
        <time>2022-01-23T16:01:52Z</time>
      </trkpt>
      <trkpt lat="42.88501" lon="0.89696">
        <ele>1235</ele>
        <time>2022-01-23T16:02:00Z</time>
      </trkpt>
      <trkpt lat="42.88509" lon="0.89703">
        <ele>1235</ele>
        <time>2022-01-23T16:02:20Z</time>
      </trkpt>
      <trkpt lat="42.885" lon="0.89697">
        <ele>1235</ele>
        <time>2022-01-23T16:02:27Z</time>
      </trkpt>
      <trkpt lat="42.88509" lon="0.89696">
        <ele>1235</ele>
        <time>2022-01-23T16:02:50Z</time>
      </trkpt>
      <trkpt lat="42.885" lon="0.89693">
        <ele>1235</ele>
        <time>2022-01-23T16:03:09Z</time>
      </trkpt>
      <trkpt lat="42.88512" lon="0.89692">
        <ele>1235</ele>
        <time>2022-01-23T16:03:16Z</time>
      </trkpt>
      <trkpt lat="42.8851" lon="0.89705">
        <ele>1235</ele>
        <time>2022-01-23T16:03:49Z</time>
      </trkpt>
      <trkpt lat="42.88517" lon="0.89695">
        <ele>1235</ele>
        <time>2022-01-23T16:04:14Z</time>
      </trkpt>
      <trkpt lat="42.88523" lon="0.89685">
        <ele>1235</ele>
        <time>2022-01-23T16:04:21Z</time>
      </trkpt>
      <trkpt lat="42.88524" lon="0.89673">
        <ele>1212</ele>
        <time>2022-01-23T16:04:32Z</time>
      </trkpt>
      <trkpt lat="42.88533" lon="0.89667">
        <ele>1212</ele>
        <time>2022-01-23T16:04:51Z</time>
      </trkpt>
      <trkpt lat="42.88538" lon="0.89656">
        <ele>1212</ele>
        <time>2022-01-23T16:04:57Z</time>
      </trkpt>
      <trkpt lat="42.88545" lon="0.89646">
        <ele>1212</ele>
        <time>2022-01-23T16:05:09Z</time>
      </trkpt>
      <trkpt lat="42.88554" lon="0.89641">
        <ele>1212</ele>
        <time>2022-01-23T16:05:18Z</time>
      </trkpt>
      <trkpt lat="42.88563" lon="0.89638">
        <ele>1212</ele>
        <time>2022-01-23T16:05:45Z</time>
      </trkpt>
      <trkpt lat="42.88567" lon="0.89625">
        <ele>1212</ele>
        <time>2022-01-23T16:05:50Z</time>
      </trkpt>
      <trkpt lat="42.88572" lon="0.89615">
        <ele>1212</ele>
        <time>2022-01-23T16:05:57Z</time>
      </trkpt>
      <trkpt lat="42.8858" lon="0.89609">
        <ele>1212</ele>
        <time>2022-01-23T16:06:06Z</time>
      </trkpt>
      <trkpt lat="42.8859" lon="0.89612">
        <ele>1212</ele>
        <time>2022-01-23T16:06:14Z</time>
      </trkpt>
      <trkpt lat="42.88595" lon="0.89623">
        <ele>1212</ele>
        <time>2022-01-23T16:06:40Z</time>
      </trkpt>
      <trkpt lat="42.886" lon="0.89611">
        <ele>1212</ele>
        <time>2022-01-23T16:06:50Z</time>
      </trkpt>
      <trkpt lat="42.88609" lon="0.89615">
        <ele>1212</ele>
        <time>2022-01-23T16:06:58Z</time>
      </trkpt>
      <trkpt lat="42.88617" lon="0.89606">
        <ele>1212</ele>
        <time>2022-01-23T16:07:08Z</time>
      </trkpt>
      <trkpt lat="42.88626" lon="0.89612">
        <ele>1212</ele>
        <time>2022-01-23T16:07:18Z</time>
      </trkpt>
      <trkpt lat="42.88627" lon="0.89599">
        <ele>1212</ele>
        <time>2022-01-23T16:07:28Z</time>
      </trkpt>
      <trkpt lat="42.8864" lon="0.89606">
        <ele>1212</ele>
        <time>2022-01-23T16:07:36Z</time>
      </trkpt>
      <trkpt lat="42.88648" lon="0.89603">
        <ele>1212</ele>
        <time>2022-01-23T16:07:39Z</time>
      </trkpt>
      <trkpt lat="42.88657" lon="0.89615">
        <ele>1212</ele>
        <time>2022-01-23T16:08:06Z</time>
      </trkpt>
      <trkpt lat="42.8865" lon="0.89605">
        <ele>1212</ele>
        <time>2022-01-23T16:08:21Z</time>
      </trkpt>
      <trkpt lat="42.88649" lon="0.89592">
        <ele>1212</ele>
        <time>2022-01-23T16:09:00Z</time>
      </trkpt>
      <trkpt lat="42.88655" lon="0.89602">
        <ele>1212</ele>
        <time>2022-01-23T16:09:24Z</time>
      </trkpt>
      <trkpt lat="42.88665" lon="0.89602">
        <ele>1212</ele>
        <time>2022-01-23T16:09:43Z</time>
      </trkpt>
      <trkpt lat="42.88672" lon="0.89594">
        <ele>1212</ele>
        <time>2022-01-23T16:10:36Z</time>
      </trkpt>
      <trkpt lat="42.88671" lon="0.8958">
        <ele>1212</ele>
        <time>2022-01-23T16:10:47Z</time>
      </trkpt>
      <trkpt lat="42.8867" lon="0.89567">
        <ele>1212</ele>
        <time>2022-01-23T16:10:59Z</time>
      </trkpt>
      <trkpt lat="42.8867" lon="0.89554">
        <ele>1212</ele>
        <time>2022-01-23T16:11:06Z</time>
      </trkpt>
      <trkpt lat="42.88674" lon="0.89543">
        <ele>1212</ele>
        <time>2022-01-23T16:11:16Z</time>
      </trkpt>
      <trkpt lat="42.88675" lon="0.8953">
        <ele>1212</ele>
        <time>2022-01-23T16:11:23Z</time>
      </trkpt>
      <trkpt lat="42.88684" lon="0.89527">
        <ele>1212</ele>
        <time>2022-01-23T16:11:30Z</time>
      </trkpt>
      <trkpt lat="42.88688" lon="0.89515">
        <ele>1212</ele>
        <time>2022-01-23T16:11:39Z</time>
      </trkpt>
      <trkpt lat="42.88691" lon="0.89503">
        <ele>1212</ele>
        <time>2022-01-23T16:11:48Z</time>
      </trkpt>
      <trkpt lat="42.88693" lon="0.89491">
        <ele>1212</ele>
        <time>2022-01-23T16:11:54Z</time>
      </trkpt>
      <trkpt lat="42.88701" lon="0.89483">
        <ele>1212</ele>
        <time>2022-01-23T16:12:08Z</time>
      </trkpt>
      <trkpt lat="42.88711" lon="0.89478">
        <ele>1212</ele>
        <time>2022-01-23T16:12:12Z</time>
      </trkpt>
      <trkpt lat="42.8872" lon="0.89479">
        <ele>1212</ele>
        <time>2022-01-23T16:12:18Z</time>
      </trkpt>
      <trkpt lat="42.88727" lon="0.8947">
        <ele>1212</ele>
        <time>2022-01-23T16:12:27Z</time>
      </trkpt>
      <trkpt lat="42.88736" lon="0.89471">
        <ele>1212</ele>
        <time>2022-01-23T16:12:34Z</time>
      </trkpt>
      <trkpt lat="42.88746" lon="0.89472">
        <ele>1185</ele>
        <time>2022-01-23T16:12:42Z</time>
      </trkpt>
      <trkpt lat="42.88759" lon="0.89479">
        <ele>1185</ele>
        <time>2022-01-23T16:12:45Z</time>
      </trkpt>
      <trkpt lat="42.8877" lon="0.89483">
        <ele>1185</ele>
        <time>2022-01-23T16:12:53Z</time>
      </trkpt>
      <trkpt lat="42.88779" lon="0.89475">
        <ele>1185</ele>
        <time>2022-01-23T16:13:28Z</time>
      </trkpt>
      <trkpt lat="42.88775" lon="0.89487">
        <ele>1185</ele>
        <time>2022-01-23T16:13:31Z</time>
      </trkpt>
      <trkpt lat="42.88783" lon="0.89482">
        <ele>1185</ele>
        <time>2022-01-23T16:13:38Z</time>
      </trkpt>
      <trkpt lat="42.88784" lon="0.89468">
        <ele>1184</ele>
        <time>2022-01-23T16:13:42Z</time>
      </trkpt>
      <trkpt lat="42.88793" lon="0.89458">
        <ele>1184</ele>
        <time>2022-01-23T16:13:47Z</time>
      </trkpt>
      <trkpt lat="42.88802" lon="0.8945">
        <ele>1184</ele>
        <time>2022-01-23T16:13:52Z</time>
      </trkpt>
      <trkpt lat="42.88805" lon="0.89437">
        <ele>1184</ele>
        <time>2022-01-23T16:14:07Z</time>
      </trkpt>
      <trkpt lat="42.88801" lon="0.89425">
        <ele>1184</ele>
        <time>2022-01-23T16:14:17Z</time>
      </trkpt>
      <trkpt lat="42.88815" lon="0.89422">
        <ele>1184</ele>
        <time>2022-01-23T16:14:30Z</time>
      </trkpt>
      <trkpt lat="42.88824" lon="0.89419">
        <ele>1184</ele>
        <time>2022-01-23T16:14:35Z</time>
      </trkpt>
      <trkpt lat="42.88833" lon="0.89422">
        <ele>1181</ele>
        <time>2022-01-23T16:14:42Z</time>
      </trkpt>
      <trkpt lat="42.88842" lon="0.89416">
        <ele>1181</ele>
        <time>2022-01-23T16:15:04Z</time>
      </trkpt>
      <trkpt lat="42.88849" lon="0.89409">
        <ele>1181</ele>
        <time>2022-01-23T16:15:12Z</time>
      </trkpt>
      <trkpt lat="42.88857" lon="0.89402">
        <ele>1181</ele>
        <time>2022-01-23T16:15:22Z</time>
      </trkpt>
      <trkpt lat="42.88862" lon="0.89414">
        <ele>1182</ele>
        <time>2022-01-23T16:15:32Z</time>
      </trkpt>
      <trkpt lat="42.88863" lon="0.89426">
        <ele>1182</ele>
        <time>2022-01-23T16:15:39Z</time>
      </trkpt>
      <trkpt lat="42.88871" lon="0.89418">
        <ele>1182</ele>
        <time>2022-01-23T16:16:12Z</time>
      </trkpt>
      <trkpt lat="42.88873" lon="0.89399">
        <ele>1182</ele>
        <time>2022-01-23T16:16:25Z</time>
      </trkpt>
      <trkpt lat="42.88878" lon="0.89389">
        <ele>1182</ele>
        <time>2022-01-23T16:16:29Z</time>
      </trkpt>
      <trkpt lat="42.88887" lon="0.89385">
        <ele>1182</ele>
        <time>2022-01-23T16:16:39Z</time>
      </trkpt>
      <trkpt lat="42.88898" lon="0.89386">
        <ele>1182</ele>
        <time>2022-01-23T16:16:50Z</time>
      </trkpt>
      <trkpt lat="42.88904" lon="0.89376">
        <ele>1182</ele>
        <time>2022-01-23T16:16:56Z</time>
      </trkpt>
      <trkpt lat="42.88913" lon="0.89376">
        <ele>1182</ele>
        <time>2022-01-23T16:17:09Z</time>
      </trkpt>
      <trkpt lat="42.88922" lon="0.8937">
        <ele>1182</ele>
        <time>2022-01-23T16:17:17Z</time>
      </trkpt>
      <trkpt lat="42.88929" lon="0.89362">
        <ele>1182</ele>
        <time>2022-01-23T16:17:23Z</time>
      </trkpt>
      <trkpt lat="42.88941" lon="0.89361">
        <ele>1182</ele>
        <time>2022-01-23T16:17:31Z</time>
      </trkpt>
      <trkpt lat="42.88952" lon="0.89363">
        <ele>1182</ele>
        <time>2022-01-23T16:17:38Z</time>
      </trkpt>
      <trkpt lat="42.88961" lon="0.8937">
        <ele>1182</ele>
        <time>2022-01-23T16:17:48Z</time>
      </trkpt>
      <trkpt lat="42.88971" lon="0.8937">
        <ele>1182</ele>
        <time>2022-01-23T16:17:55Z</time>
      </trkpt>
      <trkpt lat="42.88979" lon="0.89362">
        <ele>1182</ele>
        <time>2022-01-23T16:18:01Z</time>
      </trkpt>
      <trkpt lat="42.88981" lon="0.89347">
        <ele>1182</ele>
        <time>2022-01-23T16:18:13Z</time>
      </trkpt>
      <trkpt lat="42.88984" lon="0.89335">
        <ele>1182</ele>
        <time>2022-01-23T16:18:22Z</time>
      </trkpt>
      <trkpt lat="42.88993" lon="0.89327">
        <ele>1182</ele>
        <time>2022-01-23T16:18:30Z</time>
      </trkpt>
      <trkpt lat="42.89001" lon="0.89319">
        <ele>1182</ele>
        <time>2022-01-23T16:18:40Z</time>
      </trkpt>
      <trkpt lat="42.89011" lon="0.89314">
        <ele>1182</ele>
        <time>2022-01-23T16:18:47Z</time>
      </trkpt>
      <trkpt lat="42.8902" lon="0.89308">
        <ele>1182</ele>
        <time>2022-01-23T16:18:57Z</time>
      </trkpt>
      <trkpt lat="42.89029" lon="0.89304">
        <ele>1182</ele>
        <time>2022-01-23T16:19:05Z</time>
      </trkpt>
      <trkpt lat="42.89037" lon="0.89298">
        <ele>1182</ele>
        <time>2022-01-23T16:19:15Z</time>
      </trkpt>
      <trkpt lat="42.89047" lon="0.89295">
        <ele>1182</ele>
        <time>2022-01-23T16:19:22Z</time>
      </trkpt>
      <trkpt lat="42.89058" lon="0.89288">
        <ele>1182</ele>
        <time>2022-01-23T16:19:31Z</time>
      </trkpt>
      <trkpt lat="42.89068" lon="0.8928">
        <ele>1182</ele>
        <time>2022-01-23T16:19:44Z</time>
      </trkpt>
      <trkpt lat="42.89073" lon="0.8927">
        <ele>1182</ele>
        <time>2022-01-23T16:19:53Z</time>
      </trkpt>
      <trkpt lat="42.89082" lon="0.89273">
        <ele>1182</ele>
        <time>2022-01-23T16:20:01Z</time>
      </trkpt>
      <trkpt lat="42.8909" lon="0.89264">
        <ele>1182</ele>
        <time>2022-01-23T16:20:09Z</time>
      </trkpt>
      <trkpt lat="42.89097" lon="0.89255">
        <ele>1182</ele>
        <time>2022-01-23T16:20:14Z</time>
      </trkpt>
      <trkpt lat="42.89106" lon="0.89248">
        <ele>1182</ele>
        <time>2022-01-23T16:20:21Z</time>
      </trkpt>
      <trkpt lat="42.89117" lon="0.89247">
        <ele>1182</ele>
        <time>2022-01-23T16:20:35Z</time>
      </trkpt>
      <trkpt lat="42.89125" lon="0.89238">
        <ele>1180</ele>
        <time>2022-01-23T16:20:42Z</time>
      </trkpt>
      <trkpt lat="42.89134" lon="0.89236">
        <ele>1180</ele>
        <time>2022-01-23T16:20:51Z</time>
      </trkpt>
      <trkpt lat="42.89143" lon="0.89234">
        <ele>1180</ele>
        <time>2022-01-23T16:21:03Z</time>
      </trkpt>
      <trkpt lat="42.89151" lon="0.89227">
        <ele>1180</ele>
        <time>2022-01-23T16:21:11Z</time>
      </trkpt>
      <trkpt lat="42.89156" lon="0.89217">
        <ele>1180</ele>
        <time>2022-01-23T16:21:14Z</time>
      </trkpt>
      <trkpt lat="42.89166" lon="0.89208">
        <ele>1180</ele>
        <time>2022-01-23T16:21:23Z</time>
      </trkpt>
      <trkpt lat="42.89174" lon="0.89201">
        <ele>1180</ele>
        <time>2022-01-23T16:21:29Z</time>
      </trkpt>
      <trkpt lat="42.8918" lon="0.89188">
        <ele>1180</ele>
        <time>2022-01-23T16:21:35Z</time>
      </trkpt>
      <trkpt lat="42.89188" lon="0.89183">
        <ele>1180</ele>
        <time>2022-01-23T16:21:44Z</time>
      </trkpt>
      <trkpt lat="42.89198" lon="0.89178">
        <ele>1180</ele>
        <time>2022-01-23T16:21:54Z</time>
      </trkpt>
      <trkpt lat="42.89207" lon="0.8918">
        <ele>1180</ele>
        <time>2022-01-23T16:22:03Z</time>
      </trkpt>
      <trkpt lat="42.89216" lon="0.89169">
        <ele>1178</ele>
        <time>2022-01-23T16:22:12Z</time>
      </trkpt>
      <trkpt lat="42.89224" lon="0.89162">
        <ele>1178</ele>
        <time>2022-01-23T16:22:18Z</time>
      </trkpt>
      <trkpt lat="42.8923" lon="0.89149">
        <ele>1178</ele>
        <time>2022-01-23T16:22:25Z</time>
      </trkpt>
      <trkpt lat="42.89237" lon="0.89141">
        <ele>1177</ele>
        <time>2022-01-23T16:22:32Z</time>
      </trkpt>
      <trkpt lat="42.89246" lon="0.89135">
        <ele>1177</ele>
        <time>2022-01-23T16:22:40Z</time>
      </trkpt>
      <trkpt lat="42.89251" lon="0.89125">
        <ele>1177</ele>
        <time>2022-01-23T16:22:46Z</time>
      </trkpt>
      <trkpt lat="42.89261" lon="0.89114">
        <ele>1177</ele>
        <time>2022-01-23T16:22:56Z</time>
      </trkpt>
      <trkpt lat="42.89265" lon="0.89102">
        <ele>1177</ele>
        <time>2022-01-23T16:23:03Z</time>
      </trkpt>
      <trkpt lat="42.89267" lon="0.89089">
        <ele>1177</ele>
        <time>2022-01-23T16:23:10Z</time>
      </trkpt>
      <trkpt lat="42.89271" lon="0.89078">
        <ele>1170</ele>
        <time>2022-01-23T16:23:22Z</time>
      </trkpt>
      <trkpt lat="42.89276" lon="0.89066">
        <ele>1168</ele>
        <time>2022-01-23T16:23:32Z</time>
      </trkpt>
      <trkpt lat="42.89281" lon="0.89056">
        <ele>1168</ele>
        <time>2022-01-23T16:23:39Z</time>
      </trkpt>
      <trkpt lat="42.8929" lon="0.89047">
        <ele>1168</ele>
        <time>2022-01-23T16:23:47Z</time>
      </trkpt>
      <trkpt lat="42.89298" lon="0.89043">
        <ele>1168</ele>
        <time>2022-01-23T16:23:59Z</time>
      </trkpt>
      <trkpt lat="42.89308" lon="0.89038">
        <ele>1168</ele>
        <time>2022-01-23T16:24:06Z</time>
      </trkpt>
      <trkpt lat="42.89318" lon="0.89038">
        <ele>1168</ele>
        <time>2022-01-23T16:24:19Z</time>
      </trkpt>
      <trkpt lat="42.89321" lon="0.89025">
        <ele>1168</ele>
        <time>2022-01-23T16:24:26Z</time>
      </trkpt>
      <trkpt lat="42.89328" lon="0.89015">
        <ele>1168</ele>
        <time>2022-01-23T16:24:37Z</time>
      </trkpt>
      <trkpt lat="42.89337" lon="0.8901">
        <ele>1168</ele>
        <time>2022-01-23T16:24:41Z</time>
      </trkpt>
      <trkpt lat="42.89347" lon="0.89012">
        <ele>1168</ele>
        <time>2022-01-23T16:24:49Z</time>
      </trkpt>
      <trkpt lat="42.89356" lon="0.89006">
        <ele>1168</ele>
        <time>2022-01-23T16:24:59Z</time>
      </trkpt>
      <trkpt lat="42.89368" lon="0.89005">
        <ele>1168</ele>
        <time>2022-01-23T16:25:07Z</time>
      </trkpt>
      <trkpt lat="42.89377" lon="0.88996">
        <ele>1168</ele>
        <time>2022-01-23T16:25:19Z</time>
      </trkpt>
      <trkpt lat="42.89383" lon="0.88988">
        <ele>1168</ele>
        <time>2022-01-23T16:25:25Z</time>
      </trkpt>
      <trkpt lat="42.89392" lon="0.88979">
        <ele>1168</ele>
        <time>2022-01-23T16:25:33Z</time>
      </trkpt>
      <trkpt lat="42.89402" lon="0.88978">
        <ele>1168</ele>
        <time>2022-01-23T16:25:49Z</time>
      </trkpt>
      <trkpt lat="42.8941" lon="0.88973">
        <ele>1168</ele>
        <time>2022-01-23T16:25:57Z</time>
      </trkpt>
      <trkpt lat="42.89419" lon="0.88978">
        <ele>1168</ele>
        <time>2022-01-23T16:26:03Z</time>
      </trkpt>
      <trkpt lat="42.89429" lon="0.88981">
        <ele>1168</ele>
        <time>2022-01-23T16:26:11Z</time>
      </trkpt>
      <trkpt lat="42.89438" lon="0.88974">
        <ele>1168</ele>
        <time>2022-01-23T16:26:18Z</time>
      </trkpt>
      <trkpt lat="42.89446" lon="0.8898">
        <ele>1168</ele>
        <time>2022-01-23T16:26:24Z</time>
      </trkpt>
      <trkpt lat="42.89452" lon="0.88971">
        <ele>1168</ele>
        <time>2022-01-23T16:26:35Z</time>
      </trkpt>
      <trkpt lat="42.8944" lon="0.88973">
        <ele>1168</ele>
        <time>2022-01-23T16:26:44Z</time>
      </trkpt>
      <trkpt lat="42.89431" lon="0.88977">
        <ele>1168</ele>
        <time>2022-01-23T16:26:49Z</time>
      </trkpt>
      <trkpt lat="42.89421" lon="0.88974">
        <ele>1168</ele>
        <time>2022-01-23T16:27:00Z</time>
      </trkpt>
      <trkpt lat="42.89411" lon="0.88975">
        <ele>1168</ele>
        <time>2022-01-23T16:27:10Z</time>
      </trkpt>
      <trkpt lat="42.89402" lon="0.88974">
        <ele>1168</ele>
        <time>2022-01-23T16:27:14Z</time>
      </trkpt>
      <trkpt lat="42.89392" lon="0.88974">
        <ele>1168</ele>
        <time>2022-01-23T16:27:21Z</time>
      </trkpt>
      <trkpt lat="42.89383" lon="0.88969">
        <ele>1168</ele>
        <time>2022-01-23T16:27:29Z</time>
      </trkpt>
      <trkpt lat="42.89373" lon="0.88969">
        <ele>1168</ele>
        <time>2022-01-23T16:27:39Z</time>
      </trkpt>
      <trkpt lat="42.89364" lon="0.88967">
        <ele>1168</ele>
        <time>2022-01-23T16:27:46Z</time>
      </trkpt>
      <trkpt lat="42.89354" lon="0.88964">
        <ele>1168</ele>
        <time>2022-01-23T16:27:55Z</time>
      </trkpt>
      <trkpt lat="42.89344" lon="0.88963">
        <ele>1168</ele>
        <time>2022-01-23T16:28:01Z</time>
      </trkpt>
      <trkpt lat="42.89334" lon="0.88966">
        <ele>1168</ele>
        <time>2022-01-23T16:28:06Z</time>
      </trkpt>
      <trkpt lat="42.89326" lon="0.8896">
        <ele>1168</ele>
        <time>2022-01-23T16:28:13Z</time>
      </trkpt>
      <trkpt lat="42.89316" lon="0.88954">
        <ele>1136</ele>
        <time>2022-01-23T16:28:22Z</time>
      </trkpt>
      <trkpt lat="42.89306" lon="0.88953">
        <ele>1136</ele>
        <time>2022-01-23T16:28:34Z</time>
      </trkpt>
      <trkpt lat="42.89303" lon="0.88966">
        <ele>1136</ele>
        <time>2022-01-23T16:28:44Z</time>
      </trkpt>
      <trkpt lat="42.89295" lon="0.88973">
        <ele>1136</ele>
        <time>2022-01-23T16:28:50Z</time>
      </trkpt>
      <trkpt lat="42.89285" lon="0.88974">
        <ele>1136</ele>
        <time>2022-01-23T16:28:57Z</time>
      </trkpt>
      <trkpt lat="42.89275" lon="0.88978">
        <ele>1136</ele>
        <time>2022-01-23T16:29:09Z</time>
      </trkpt>
      <trkpt lat="42.89271" lon="0.88989">
        <ele>1136</ele>
        <time>2022-01-23T16:29:16Z</time>
      </trkpt>
      <trkpt lat="42.89266" lon="0.89001">
        <ele>1136</ele>
        <time>2022-01-23T16:29:27Z</time>
      </trkpt>
      <trkpt lat="42.89259" lon="0.8901">
        <ele>1136</ele>
        <time>2022-01-23T16:29:36Z</time>
      </trkpt>
      <trkpt lat="42.89253" lon="0.89019">
        <ele>1136</ele>
        <time>2022-01-23T16:29:41Z</time>
      </trkpt>
      <trkpt lat="42.89244" lon="0.89027">
        <ele>1136</ele>
        <time>2022-01-23T16:29:48Z</time>
      </trkpt>
      <trkpt lat="42.89237" lon="0.89035">
        <ele>1136</ele>
        <time>2022-01-23T16:29:57Z</time>
      </trkpt>
      <trkpt lat="42.89229" lon="0.89042">
        <ele>1136</ele>
        <time>2022-01-23T16:30:03Z</time>
      </trkpt>
      <trkpt lat="42.89221" lon="0.89047">
        <ele>1136</ele>
        <time>2022-01-23T16:30:10Z</time>
      </trkpt>
      <trkpt lat="42.89211" lon="0.89049">
        <ele>1136</ele>
        <time>2022-01-23T16:30:19Z</time>
      </trkpt>
      <trkpt lat="42.89201" lon="0.89048">
        <ele>1136</ele>
        <time>2022-01-23T16:30:28Z</time>
      </trkpt>
      <trkpt lat="42.89191" lon="0.89047">
        <ele>1136</ele>
        <time>2022-01-23T16:30:34Z</time>
      </trkpt>
      <trkpt lat="42.89181" lon="0.8905">
        <ele>1136</ele>
        <time>2022-01-23T16:30:39Z</time>
      </trkpt>
      <trkpt lat="42.89178" lon="0.89062">
        <ele>1136</ele>
        <time>2022-01-23T16:30:51Z</time>
      </trkpt>
      <trkpt lat="42.89172" lon="0.89072">
        <ele>1136</ele>
        <time>2022-01-23T16:31:05Z</time>
      </trkpt>
      <trkpt lat="42.89166" lon="0.89081">
        <ele>1136</ele>
        <time>2022-01-23T16:31:13Z</time>
      </trkpt>
      <trkpt lat="42.89161" lon="0.89091">
        <ele>1111</ele>
        <time>2022-01-23T16:31:22Z</time>
      </trkpt>
      <trkpt lat="42.89155" lon="0.89102">
        <ele>1111</ele>
        <time>2022-01-23T16:31:36Z</time>
      </trkpt>
      <trkpt lat="42.89148" lon="0.89109">
        <ele>1111</ele>
        <time>2022-01-23T16:31:53Z</time>
      </trkpt>
      <trkpt lat="42.89155" lon="0.8912">
        <ele>1106</ele>
        <time>2022-01-23T16:32:02Z</time>
      </trkpt>
      <trkpt lat="42.89131" lon="0.89123">
        <ele>1106</ele>
        <time>2022-01-23T16:32:38Z</time>
      </trkpt>
      <trkpt lat="42.89128" lon="0.8911">
        <ele>1106</ele>
        <time>2022-01-23T16:32:48Z</time>
      </trkpt>
      <trkpt lat="42.89268" lon="0.89075">
        <ele>1097</ele>
        <time>2022-01-23T16:33:42Z</time>
      </trkpt>
      <trkpt lat="42.89276" lon="0.89068">
        <ele>1097</ele>
        <time>2022-01-23T16:33:48Z</time>
      </trkpt>
      <trkpt lat="42.89286" lon="0.89062">
        <ele>1097</ele>
        <time>2022-01-23T16:33:54Z</time>
      </trkpt>
      <trkpt lat="42.89296" lon="0.89057">
        <ele>1097</ele>
        <time>2022-01-23T16:33:59Z</time>
      </trkpt>
      <trkpt lat="42.89307" lon="0.89053">
        <ele>1097</ele>
        <time>2022-01-23T16:34:03Z</time>
      </trkpt>
      <trkpt lat="42.89315" lon="0.89047">
        <ele>1097</ele>
        <time>2022-01-23T16:34:08Z</time>
      </trkpt>
      <trkpt lat="42.89324" lon="0.89043">
        <ele>1094</ele>
        <time>2022-01-23T16:34:12Z</time>
      </trkpt>
      <trkpt lat="42.89331" lon="0.89033">
        <ele>1094</ele>
        <time>2022-01-23T16:34:21Z</time>
      </trkpt>
      <trkpt lat="42.89325" lon="0.89023">
        <ele>1094</ele>
        <time>2022-01-23T16:34:29Z</time>
      </trkpt>
      <trkpt lat="42.89319" lon="0.89013">
        <ele>1094</ele>
        <time>2022-01-23T16:34:36Z</time>
      </trkpt>
      <trkpt lat="42.8925" lon="0.88987">
        <ele>1094</ele>
        <time>2022-01-23T16:34:49Z</time>
      </trkpt>
      <trkpt lat="42.89247" lon="0.88974">
        <ele>1094</ele>
        <time>2022-01-23T16:35:01Z</time>
      </trkpt>
      <trkpt lat="42.89236" lon="0.88955">
        <ele>1094</ele>
        <time>2022-01-23T16:35:14Z</time>
      </trkpt>
      <trkpt lat="42.89242" lon="0.88944">
        <ele>1094</ele>
        <time>2022-01-23T16:35:23Z</time>
      </trkpt>
      <trkpt lat="42.89236" lon="0.88929">
        <ele>1094</ele>
        <time>2022-01-23T16:35:31Z</time>
      </trkpt>
      <trkpt lat="42.89226" lon="0.88921">
        <ele>1094</ele>
        <time>2022-01-23T16:35:33Z</time>
      </trkpt>
      <trkpt lat="42.89217" lon="0.88915">
        <ele>1094</ele>
        <time>2022-01-23T16:35:36Z</time>
      </trkpt>
      <trkpt lat="42.89211" lon="0.88905">
        <ele>1094</ele>
        <time>2022-01-23T16:35:44Z</time>
      </trkpt>
      <trkpt lat="42.89203" lon="0.88896">
        <ele>1094</ele>
        <time>2022-01-23T16:35:49Z</time>
      </trkpt>
      <trkpt lat="42.89194" lon="0.8889">
        <ele>1094</ele>
        <time>2022-01-23T16:35:53Z</time>
      </trkpt>
      <trkpt lat="42.89198" lon="0.88879">
        <ele>1094</ele>
        <time>2022-01-23T16:36:03Z</time>
      </trkpt>
      <trkpt lat="42.89196" lon="0.88867">
        <ele>1094</ele>
        <time>2022-01-23T16:36:13Z</time>
      </trkpt>
      <trkpt lat="42.89194" lon="0.88855">
        <ele>1094</ele>
        <time>2022-01-23T16:36:23Z</time>
      </trkpt>
      <trkpt lat="42.89179" lon="0.88846">
        <ele>1094</ele>
        <time>2022-01-23T16:36:29Z</time>
      </trkpt>
      <trkpt lat="42.89172" lon="0.88835">
        <ele>1094</ele>
        <time>2022-01-23T16:36:35Z</time>
      </trkpt>
      <trkpt lat="42.89164" lon="0.8883">
        <ele>1094</ele>
        <time>2022-01-23T16:36:37Z</time>
      </trkpt>
      <trkpt lat="42.89162" lon="0.88816">
        <ele>1094</ele>
        <time>2022-01-23T16:36:47Z</time>
      </trkpt>
      <trkpt lat="42.8916" lon="0.88804">
        <ele>1094</ele>
        <time>2022-01-23T16:36:54Z</time>
      </trkpt>
      <trkpt lat="42.89163" lon="0.88789">
        <ele>1094</ele>
        <time>2022-01-23T16:37:01Z</time>
      </trkpt>
      <trkpt lat="42.89161" lon="0.88776">
        <ele>1094</ele>
        <time>2022-01-23T16:37:09Z</time>
      </trkpt>
      <trkpt lat="42.89166" lon="0.88766">
        <ele>1094</ele>
        <time>2022-01-23T16:37:17Z</time>
      </trkpt>
      <trkpt lat="42.89174" lon="0.88759">
        <ele>1094</ele>
        <time>2022-01-23T16:37:24Z</time>
      </trkpt>
      <trkpt lat="42.89175" lon="0.88745">
        <ele>1094</ele>
        <time>2022-01-23T16:37:31Z</time>
      </trkpt>
      <trkpt lat="42.89173" lon="0.88732">
        <ele>1094</ele>
        <time>2022-01-23T16:37:43Z</time>
      </trkpt>
      <trkpt lat="42.8917" lon="0.88718">
        <ele>1065</ele>
        <time>2022-01-23T16:37:52Z</time>
      </trkpt>
      <trkpt lat="42.89161" lon="0.88713">
        <ele>1065</ele>
        <time>2022-01-23T16:37:54Z</time>
      </trkpt>
      <trkpt lat="42.89155" lon="0.88702">
        <ele>1065</ele>
        <time>2022-01-23T16:37:59Z</time>
      </trkpt>
      <trkpt lat="42.89156" lon="0.88689">
        <ele>1065</ele>
        <time>2022-01-23T16:38:06Z</time>
      </trkpt>
      <trkpt lat="42.89157" lon="0.88676">
        <ele>1065</ele>
        <time>2022-01-23T16:38:13Z</time>
      </trkpt>
      <trkpt lat="42.89164" lon="0.88667">
        <ele>1065</ele>
        <time>2022-01-23T16:38:19Z</time>
      </trkpt>
      <trkpt lat="42.89167" lon="0.88655">
        <ele>1065</ele>
        <time>2022-01-23T16:38:29Z</time>
      </trkpt>
      <trkpt lat="42.89159" lon="0.88647">
        <ele>1065</ele>
        <time>2022-01-23T16:38:37Z</time>
      </trkpt>
      <trkpt lat="42.89152" lon="0.88637">
        <ele>1065</ele>
        <time>2022-01-23T16:38:41Z</time>
      </trkpt>
      <trkpt lat="42.8915" lon="0.88625">
        <ele>1065</ele>
        <time>2022-01-23T16:38:47Z</time>
      </trkpt>
      <trkpt lat="42.89146" lon="0.88612">
        <ele>1065</ele>
        <time>2022-01-23T16:38:52Z</time>
      </trkpt>
      <trkpt lat="42.89156" lon="0.88612">
        <ele>1065</ele>
        <time>2022-01-23T16:39:01Z</time>
      </trkpt>
      <trkpt lat="42.89165" lon="0.88617">
        <ele>1065</ele>
        <time>2022-01-23T16:39:07Z</time>
      </trkpt>
      <trkpt lat="42.8916" lon="0.88629">
        <ele>1065</ele>
        <time>2022-01-23T16:39:14Z</time>
      </trkpt>
      <trkpt lat="42.89161" lon="0.88644">
        <ele>1065</ele>
        <time>2022-01-23T16:39:24Z</time>
      </trkpt>
      <trkpt lat="42.89165" lon="0.88656">
        <ele>1065</ele>
        <time>2022-01-23T16:39:31Z</time>
      </trkpt>
      <trkpt lat="42.89169" lon="0.88669">
        <ele>1065</ele>
        <time>2022-01-23T16:39:41Z</time>
      </trkpt>
      <trkpt lat="42.89173" lon="0.88681">
        <ele>1065</ele>
        <time>2022-01-23T16:39:51Z</time>
      </trkpt>
      <trkpt lat="42.89176" lon="0.88694">
        <ele>1065</ele>
        <time>2022-01-23T16:39:59Z</time>
      </trkpt>
      <trkpt lat="42.89184" lon="0.88704">
        <ele>1065</ele>
        <time>2022-01-23T16:40:07Z</time>
      </trkpt>
      <trkpt lat="42.8919" lon="0.88712">
        <ele>1065</ele>
        <time>2022-01-23T16:40:13Z</time>
      </trkpt>
      <trkpt lat="42.89198" lon="0.88725">
        <ele>1065</ele>
        <time>2022-01-23T16:40:21Z</time>
      </trkpt>
      <trkpt lat="42.892" lon="0.8871">
        <ele>1065</ele>
        <time>2022-01-23T16:40:40Z</time>
      </trkpt>
      <trkpt lat="42.89196" lon="0.88697">
        <ele>1065</ele>
        <time>2022-01-23T16:40:42Z</time>
      </trkpt>
      <trkpt lat="42.89187" lon="0.88691">
        <ele>1065</ele>
        <time>2022-01-23T16:40:48Z</time>
      </trkpt>
      <trkpt lat="42.8919" lon="0.88693">
        <ele>1044</ele>
        <time>2022-01-23T16:41:11Z</time>
      </trkpt>
    </trkseg>
  </trk>
</gpx>